Time,TemperatureF,DewpointF,PressureIn,WindDirection,WindDirectionDegrees,WindSpeedMPH,WindSpeedGustMPH,Humidity,HourlyPrecipIn,Conditions,Clouds,dailyrainin,SolarRadiationWatts/m^2,SoftwareType,DateUTC
2013-11-17 00:01:00,55.0,52.3,29.75,South,179,8.7,9.7,91,0.00,,,0.00,0.00,VWS V14.01,2013-11-17 05:01:00,
2013-11-17 00:02:00,55.0,52.3,29.76,SSW,199,12.1,12.1,91,0.00,,,0.00,0.00,VWS V14.01,2013-11-17 05:02:00,
2013-11-17 00:03:00,54.7,52.1,29.75,South,183,11.2,12.1,91,0.00,,,0.00,0.00,VWS V14.01,2013-11-17 05:03:00,
2013-11-17 00:04:00,55.3,52.8,29.76,SSW,195,13.5,14.1,91,0.00,,,0.00,0.43,VWS V14.01,2013-11-17 05:04:00,
2013-11-17 00:06:00,55.4,53.0,29.75,SSW,197,15.0,15.0,92,0.00,,,0.00,0.00,VWS V14.01,2013-11-17 05:06:00,
2013-11-17 00:08:00,55.1,52.7,29.75,South,179,11.9,15.0,91,0.00,,,0.00,0.00,VWS V14.01,2013-11-17 05:08:00,
2013-11-17 00:12:00,55.2,52.8,29.75,SSW,200,13.6,15.7,92,0.00,,,0.00,0.00,VWS V14.01,2013-11-17 05:12:00,
2013-11-17 00:13:00,55.1,52.7,29.75,South,191,9.5,13.6,91,0.00,,,0.00,0.00,VWS V14.01,2013-11-17 05:13:00,
2013-11-17 00:14:00,55.2,52.8,29.74,SSW,196,11.9,13.6,92,0.00,,,0.00,0.00,VWS V14.01,2013-11-17 05:14:00,
2013-11-17 00:16:00,55.8,53.5,29.74,South,178,19.8,19.8,92,0.00,,,0.00,0.00,VWS V14.01,2013-11-17 05:16:00,
2013-11-17 00:17:00,54.3,51.9,29.73,South,190,11.9,19.8,92,0.00,,,0.00,0.00,VWS V14.01,2013-11-17 05:17:00,
2013-11-17 00:18:00,54.4,52.0,29.73,SSW,206,9.9,11.9,92,0.00,,,0.00,0.00,VWS V14.01,2013-11-17 05:18:00,
2013-11-17 00:19:00,55.1,52.9,29.73,South,182,11.7,11.7,92,0.00,,,0.00,0.00,VWS V14.01,2013-11-17 05:19:00,
2013-11-17 00:21:00,55.2,53.0,29.73,South,171,10.5,12.4,92,0.00,,,0.00,0.00,VWS V14.01,2013-11-17 05:21:00,
2013-11-17 00:22:00,55.4,53.3,29.74,South,191,15.5,15.5,92,0.00,,,0.00,0.00,VWS V14.01,2013-11-17 05:22:00,
2013-11-17 00:23:00,55.4,53.3,29.74,South,191,15.5,15.5,92,0.00,,,0.00,0.00,VWS V14.01,2013-11-17 05:23:00,
2013-11-17 00:25:00,55.0,53.0,29.74,South,186,11.4,13.6,93,0.04,,,0.04,0.43,VWS V14.01,2013-11-17 05:25:00,
2013-11-17 00:26:00,55.0,53.0,29.73,SSW,193,10.9,11.7,93,0.04,,,0.04,0.00,VWS V14.01,2013-11-17 05:26:00,
2013-11-17 00:28:00,54.9,53.0,29.73,SSW,193,11.9,11.9,93,0.04,,,0.04,0.00,VWS V14.01,2013-11-17 05:28:00,
2013-11-17 00:30:00,55.3,53.4,29.75,South,185,14.5,14.5,93,0.04,,,0.04,0.00,VWS V14.01,2013-11-17 05:30:00,
2013-11-17 00:31:00,55.3,53.4,29.75,SSW,199,11.9,16.2,93,0.04,,,0.04,0.00,VWS V14.01,2013-11-17 05:31:00,
2013-11-17 00:33:00,55.5,53.5,29.75,South,191,15.2,15.2,93,0.04,,,0.04,0.00,VWS V14.01,2013-11-17 05:33:00,
2013-11-17 00:36:00,55.5,53.5,29.74,South,187,16.0,16.0,93,0.04,,,0.04,0.67,VWS V14.01,2013-11-17 05:36:00,
2013-11-17 00:37:00,55.4,53.4,29.75,South,174,11.9,12.1,93,0.04,,,0.04,0.00,VWS V14.01,2013-11-17 05:37:00,
2013-11-17 00:38:00,55.3,53.3,29.74,SSW,195,11.6,11.6,93,0.04,,,0.04,0.00,VWS V14.01,2013-11-17 05:38:00,
2013-11-17 00:39:00,55.4,53.5,29.74,South,180,10.2,11.6,93,0.04,,,0.04,0.00,VWS V14.01,2013-11-17 05:39:00,
2013-11-17 00:40:00,55.5,53.6,29.75,South,190,10.9,14.8,93,0.04,,,0.04,0.00,VWS V14.01,2013-11-17 05:40:00,
2013-11-17 00:41:00,55.8,53.8,29.74,SSW,193,13.3,13.3,93,0.04,,,0.04,0.12,VWS V14.01,2013-11-17 05:41:00,
2013-11-17 00:42:00,55.8,53.8,29.75,SSW,202,13.8,15.5,93,0.04,,,0.04,0.00,VWS V14.01,2013-11-17 05:42:00,
2013-11-17 00:44:00,55.5,53.5,29.74,South,186,12.6,12.6,93,0.04,,,0.04,0.00,VWS V14.01,2013-11-17 05:44:00,
2013-11-17 00:46:00,55.2,53.3,29.73,SSW,205,8.8,12.3,94,0.04,,,0.04,0.00,VWS V14.01,2013-11-17 05:46:00,
2013-11-17 00:47:00,55.7,54.0,29.74,SSW,200,14.0,14.0,94,0.04,,,0.04,0.00,VWS V14.01,2013-11-17 05:47:00,
2013-11-17 00:49:00,55.4,53.8,29.73,SSW,193,12.3,15.0,94,0.04,,,0.04,0.00,VWS V14.01,2013-11-17 05:49:00,
2013-11-17 00:50:00,55.1,53.5,29.73,SSW,197,8.1,12.3,94,0.04,,,0.04,0.00,VWS V14.01,2013-11-17 05:50:00,
2013-11-17 00:52:00,55.2,53.6,29.73,SSW,196,13.3,15.0,95,0.04,,,0.04,0.00,VWS V14.01,2013-11-17 05:52:00,
2013-11-17 00:53:00,55.2,53.6,29.73,SSW,196,13.3,15.0,95,0.04,,,0.04,0.00,VWS V14.01,2013-11-17 05:53:00,
2013-11-17 00:54:00,55.3,53.8,29.72,SSW,203,10.2,11.6,95,0.04,,,0.04,0.00,VWS V14.01,2013-11-17 05:54:00,
2013-11-17 00:56:00,55.5,54.0,29.72,South,174,11.4,11.6,95,0.04,,,0.04,0.67,VWS V14.01,2013-11-17 05:56:00,
2013-11-17 00:57:00,55.4,53.9,29.73,South,183,12.6,12.6,95,0.04,,,0.04,0.00,VWS V14.01,2013-11-17 05:57:00,
2013-11-17 00:58:00,55.4,54.0,29.73,SSW,196,12.3,12.3,95,0.04,,,0.04,0.00,VWS V14.01,2013-11-17 05:58:00,
2013-11-17 00:59:00,55.6,54.3,29.73,South,181,16.5,17.6,95,0.04,,,0.04,0.00,VWS V14.01,2013-11-17 05:59:00,
2013-11-17 01:01:00,55.5,54.1,29.72,South,171,11.7,14.1,95,0.04,,,0.04,0.00,VWS V14.01,2013-11-17 06:01:00,
2013-11-17 01:02:00,55.5,54.1,29.72,SSW,205,11.9,13.6,95,0.00,,,0.04,0.00,VWS V14.01,2013-11-17 06:02:00,
2013-11-17 01:04:00,55.1,53.7,29.73,South,191,12.1,13.6,95,0.00,,,0.04,0.00,VWS V14.01,2013-11-17 06:04:00,
2013-11-17 01:05:00,55.6,54.3,29.73,South,180,17.6,17.6,95,0.00,,,0.04,0.00,VWS V14.01,2013-11-17 06:05:00,
2013-11-17 01:06:00,55.7,54.4,29.72,South,187,18.9,18.9,95,0.00,,,0.04,0.00,VWS V14.01,2013-11-17 06:06:00,
2013-11-17 01:07:00,55.5,54.1,29.73,South,187,12.8,18.9,95,0.00,,,0.04,0.00,VWS V14.01,2013-11-17 06:07:00,
2013-11-17 01:11:00,54.8,53.5,29.73,South,185,14.0,18.9,95,0.00,,,0.04,0.00,VWS V14.01,2013-11-17 06:11:00,
2013-11-17 01:12:00,55.0,53.7,29.73,South,190,15.5,18.9,95,0.00,,,0.04,0.00,VWS V14.01,2013-11-17 06:12:00,
2013-11-17 01:13:00,55.1,53.8,29.72,South,188,16.7,18.9,96,0.00,,,0.04,0.00,VWS V14.01,2013-11-17 06:13:00,
2013-11-17 01:14:00,55.0,53.8,29.73,South,184,13.3,18.9,96,0.00,,,0.04,0.00,VWS V14.01,2013-11-17 06:14:00,
2013-11-17 01:16:00,55.4,54.3,29.72,SSW,195,12.9,18.9,96,0.00,,,0.04,0.00,VWS V14.01,2013-11-17 06:16:00,
2013-11-17 01:17:00,55.2,54.2,29.73,SSW,193,13.8,18.9,96,0.00,,,0.04,0.00,VWS V14.01,2013-11-17 06:17:00,
2013-11-17 01:18:00,55.5,54.4,29.72,SSW,195,14.1,18.9,96,0.00,,,0.04,0.00,VWS V14.01,2013-11-17 06:18:00,
2013-11-17 01:19:00,55.2,54.1,29.72,South,181,10.7,18.9,96,0.00,,,0.04,0.43,VWS V14.01,2013-11-17 06:19:00,
2013-11-17 01:20:00,55.2,54.1,29.71,South,187,14.8,18.9,96,0.00,,,0.04,0.00,VWS V14.01,2013-11-17 06:20:00,
2013-11-17 01:22:00,55.2,54.2,29.72,SSW,193,12.8,18.9,96,0.00,,,0.04,0.00,VWS V14.01,2013-11-17 06:22:00,
2013-11-17 01:23:00,55.5,54.5,29.72,SSW,198,12.8,18.9,96,0.00,,,0.04,0.00,VWS V14.01,2013-11-17 06:23:00,
2013-11-17 01:24:00,55.7,54.7,29.71,SSE,165,12.6,18.9,96,0.00,,,0.04,0.00,VWS V14.01,2013-11-17 06:24:00,
2013-11-17 01:26:00,55.4,54.3,29.71,South,174,13.5,18.9,96,0.00,,,0.04,0.00,VWS V14.01,2013-11-17 06:26:00,
2013-11-17 01:27:00,55.5,54.4,29.71,SSW,192,13.5,18.9,96,0.00,,,0.04,0.00,VWS V14.01,2013-11-17 06:27:00,
2013-11-17 01:28:00,55.5,54.4,29.71,SSW,192,13.5,18.9,96,0.00,,,0.04,0.00,VWS V14.01,2013-11-17 06:28:00,
2013-11-17 01:30:00,55.4,54.1,29.71,South,188,12.9,18.9,95,0.00,,,0.04,0.00,VWS V14.01,2013-11-17 06:30:00,
2013-11-17 01:32:00,55.8,54.5,29.72,SSW,196,14.6,18.9,95,0.00,,,0.04,0.00,VWS V14.01,2013-11-17 06:32:00,
2013-11-17 01:33:00,55.3,53.9,29.71,South,180,9.7,18.9,95,0.00,,,0.04,0.00,VWS V14.01,2013-11-17 06:33:00,
2013-11-17 01:34:00,55.4,54.1,29.71,SSW,195,10.5,18.9,95,0.04,,,0.08,0.00,VWS V14.01,2013-11-17 06:34:00,
2013-11-17 01:35:00,55.4,54.1,29.70,South,190,12.1,18.9,95,0.04,,,0.08,0.00,VWS V14.01,2013-11-17 06:35:00,
2013-11-17 01:36:00,55.5,54.2,29.71,SSW,202,15.7,18.9,96,0.04,,,0.08,0.00,VWS V14.01,2013-11-17 06:36:00,
2013-11-17 01:40:00,55.7,54.6,29.70,South,181,15.2,18.9,96,0.04,,,0.08,0.00,VWS V14.01,2013-11-17 06:40:00,
2013-11-17 01:41:00,55.7,54.5,29.70,SSW,193,12.9,18.9,96,0.04,,,0.08,0.00,VWS V14.01,2013-11-17 06:41:00,
2013-11-17 01:42:00,55.3,54.2,29.70,SSW,194,12.3,18.9,96,0.04,,,0.08,0.00,VWS V14.01,2013-11-17 06:42:00,
2013-11-17 01:44:00,55.0,53.9,29.70,South,180,13.3,18.9,96,0.04,,,0.08,0.00,VWS V14.01,2013-11-17 06:44:00,
2013-11-17 01:46:00,55.0,53.0,29.70,SSW,193,14.6,18.9,93,0.04,,,0.08,0.00,VWS V14.01,2013-11-17 06:46:00,
2013-11-17 01:48:00,55.4,54.3,29.71,South,190,10.4,18.9,96,0.04,,,0.08,0.00,VWS V14.01,2013-11-17 06:48:00,
2013-11-17 01:49:00,55.5,53.5,29.71,SSW,206,9.9,18.9,93,0.04,,,0.08,0.00,VWS V14.01,2013-11-17 06:49:00,
2013-11-17 01:50:00,55.5,54.4,29.71,SSW,203,9.7,18.9,96,0.04,,,0.08,0.43,VWS V14.01,2013-11-17 06:50:00,
2013-11-17 01:52:00,55.8,54.7,29.70,SSW,201,14.8,18.9,96,0.04,,,0.08,0.00,VWS V14.01,2013-11-17 06:52:00,
2013-11-17 01:53:00,55.7,54.6,29.71,South,189,13.5,18.9,96,0.04,,,0.08,0.00,VWS V14.01,2013-11-17 06:53:00,
2013-11-17 01:56:00,55.5,54.5,29.71,SSW,198,11.2,18.9,96,0.04,,,0.08,0.00,VWS V14.01,2013-11-17 06:56:00,
2013-11-17 01:57:00,55.8,54.8,29.71,SSW,199,14.8,18.9,96,0.04,,,0.08,0.00,VWS V14.01,2013-11-17 06:57:00,
2013-11-17 01:59:00,55.6,54.6,29.70,South,178,16.0,18.9,96,0.04,,,0.08,0.00,VWS V14.01,2013-11-17 06:59:00,
2013-11-17 02:00:00,55.7,54.7,29.70,South,190,14.1,18.9,96,0.04,,,0.00,0.00,VWS V14.01,2013-11-17 07:00:00,
2013-11-17 02:01:00,55.7,54.7,29.70,South,190,14.1,18.9,96,0.04,,,0.08,0.00,VWS V14.01,2013-11-17 07:01:00,
2013-11-17 02:02:00,55.9,54.9,29.70,SSW,204,11.9,18.9,97,0.04,,,0.08,0.00,VWS V14.01,2013-11-17 07:02:00,
2013-11-17 02:05:00,56.0,55.0,29.69,South,183,10.7,18.9,96,0.04,,,0.08,0.00,VWS V14.01,2013-11-17 07:05:00,
2013-11-17 02:06:00,55.7,54.6,29.69,SSW,199,11.7,18.9,96,0.04,,,0.08,0.43,VWS V14.01,2013-11-17 07:06:00,
2013-11-17 02:07:00,55.4,54.4,29.69,SSW,200,11.7,18.9,96,0.04,,,0.08,0.00,VWS V14.01,2013-11-17 07:07:00,
2013-11-17 02:09:00,55.5,54.5,29.69,SSW,201,10.5,18.9,96,0.04,,,0.08,0.73,VWS V14.01,2013-11-17 07:09:00,
2013-11-17 02:11:00,55.7,54.7,29.69,South,170,9.7,18.9,97,0.04,,,0.08,0.00,VWS V14.01,2013-11-17 07:11:00,
2013-11-17 02:12:00,56.1,55.2,29.69,SSW,196,15.7,18.9,97,0.04,,,0.08,0.00,VWS V14.01,2013-11-17 07:12:00,
2013-11-17 02:13:00,55.7,54.8,29.69,South,170,11.6,18.9,97,0.04,,,0.08,0.00,VWS V14.01,2013-11-17 07:13:00,
2013-11-17 02:14:00,55.8,53.4,29.69,South,189,14.0,18.9,92,0.04,,,0.08,0.00,VWS V14.01,2013-11-17 07:14:00,
2013-11-17 02:15:00,56.2,55.2,29.69,SSW,192,15.8,18.9,97,0.04,,,0.08,0.00,VWS V14.01,2013-11-17 07:15:00,
2013-11-17 02:18:00,55.8,54.8,29.69,SSW,195,10.4,18.9,96,0.04,,,0.08,0.00,VWS V14.01,2013-11-17 07:18:00,
2013-11-17 02:19:00,55.8,54.7,29.69,South,185,10.2,18.9,96,0.04,,,0.08,0.00,VWS V14.01,2013-11-17 07:19:00,
2013-11-17 02:20:00,55.9,54.1,29.68,SSW,199,14.6,18.9,94,0.04,,,0.08,0.00,VWS V14.01,2013-11-17 07:20:00,
2013-11-17 02:21:00,55.9,54.9,29.69,SW,215,16.2,18.9,96,0.04,,,0.08,0.00,VWS V14.01,2013-11-17 07:21:00,
2013-11-17 02:22:00,56.3,55.3,29.68,South,190,14.1,18.9,96,0.04,,,0.08,0.00,VWS V14.01,2013-11-17 07:22:00,
2013-11-17 02:24:00,55.8,54.8,29.69,South,191,9.2,18.9,96,0.04,,,0.08,0.00,VWS V14.01,2013-11-17 07:24:00,
2013-11-17 02:25:00,55.8,54.8,29.69,South,191,9.2,18.9,96,0.04,,,0.08,0.00,VWS V14.01,2013-11-17 07:25:00,
2013-11-17 02:27:00,55.8,54.6,29.68,SSW,193,10.4,18.9,96,0.04,,,0.08,0.00,VWS V14.01,2013-11-17 07:27:00,
2013-11-17 02:28:00,56.2,55.0,29.69,South,175,16.2,18.9,96,0.04,,,0.08,0.00,VWS V14.01,2013-11-17 07:28:00,
2013-11-17 02:29:00,56.0,54.8,29.68,SSW,192,12.6,18.9,96,0.04,,,0.08,0.00,VWS V14.01,2013-11-17 07:29:00,
2013-11-17 02:30:00,56.0,54.9,29.69,SSW,194,14.1,18.9,96,0.04,,,0.08,0.00,VWS V14.01,2013-11-17 07:30:00,
2013-11-17 02:32:00,56.1,55.0,29.69,South,185,15.8,18.9,96,0.04,,,0.08,0.12,VWS V14.01,2013-11-17 07:32:00,
2013-11-17 02:33:00,56.0,54.8,29.69,South,186,11.7,18.9,96,0.04,,,0.08,0.00,VWS V14.01,2013-11-17 07:33:00,
2013-11-17 02:34:00,56.1,55.0,29.69,SSW,199,13.8,18.9,96,0.04,,,0.08,0.00,VWS V14.01,2013-11-17 07:34:00,
2013-11-17 02:35:00,56.0,54.8,29.69,SSW,204,8.1,18.9,96,0.04,,,0.08,0.73,VWS V14.01,2013-11-17 07:35:00,
2013-11-17 02:36:00,56.1,55.0,29.68,South,186,13.1,18.9,96,0.04,,,0.08,0.00,VWS V14.01,2013-11-17 07:36:00,
2013-11-17 02:38:00,56.2,55.1,29.68,SSW,197,13.1,18.9,96,0.04,,,0.08,0.00,VWS V14.01,2013-11-17 07:38:00,
2013-11-17 02:39:00,56.1,55.1,29.68,South,187,9.9,18.9,96,0.04,,,0.08,0.00,VWS V14.01,2013-11-17 07:39:00,
2013-11-17 02:41:00,56.0,55.0,29.68,SSW,201,11.7,18.9,96,0.04,,,0.08,0.37,VWS V14.01,2013-11-17 07:41:00,
2013-11-17 02:43:00,56.1,55.1,29.69,SSW,195,10.2,18.9,96,0.04,,,0.08,0.00,VWS V14.01,2013-11-17 07:43:00,
2013-11-17 02:44:00,56.2,55.1,29.69,SSW,192,10.0,18.9,96,0.04,,,0.08,0.00,VWS V14.01,2013-11-17 07:44:00,
2013-11-17 02:46:00,56.5,55.4,29.69,South,173,12.8,18.9,96,0.04,,,0.08,0.00,VWS V14.01,2013-11-17 07:46:00,
2013-11-17 02:47:00,56.5,55.4,29.68,South,180,14.0,18.9,96,0.04,,,0.08,0.43,VWS V14.01,2013-11-17 07:47:00,
2013-11-17 02:48:00,56.4,55.3,29.68,SSW,207,13.3,18.9,96,0.04,,,0.08,0.00,VWS V14.01,2013-11-17 07:48:00,
2013-11-17 02:49:00,56.3,55.2,29.68,SSW,195,12.1,18.9,96,0.04,,,0.08,0.00,VWS V14.01,2013-11-17 07:49:00,
2013-11-17 02:52:00,56.3,55.2,29.68,SSW,204,11.7,18.9,96,0.04,,,0.08,0.00,VWS V14.01,2013-11-17 07:52:00,
2013-11-17 02:53:00,56.4,55.3,29.69,SSW,209,12.9,18.9,96,0.04,,,0.08,0.00,VWS V14.01,2013-11-17 07:53:00,
2013-11-17 02:55:00,56.5,55.4,29.69,SSW,205,11.1,18.9,96,0.04,,,0.08,0.00,VWS V14.01,2013-11-17 07:55:00,
2013-11-17 02:58:00,56.6,55.6,29.68,SSW,193,12.4,18.9,96,0.04,,,0.08,0.00,VWS V14.01,2013-11-17 07:58:00,
2013-11-17 02:59:00,56.5,54.4,29.68,SSW,212,11.7,18.9,93,0.04,,,0.08,0.00,VWS V14.01,2013-11-17 07:59:00,
2013-11-17 03:00:00,56.6,55.7,29.69,SSW,212,17.6,18.9,97,0.04,,,0.08,0.00,VWS V14.01,2013-11-17 08:00:00,
2013-11-17 03:01:00,56.3,55.3,29.69,SSW,201,10.4,18.9,96,0.04,,,0.08,0.00,VWS V14.01,2013-11-17 08:01:00,
2013-11-17 03:04:00,56.5,55.6,29.68,SSW,212,14.8,18.1,97,0.04,,,0.08,0.00,VWS V14.01,2013-11-17 08:04:00,
2013-11-17 03:05:00,57.1,56.0,29.68,SSW,206,14.8,14.8,96,0.04,,,0.08,0.00,VWS V14.01,2013-11-17 08:05:00,
2013-11-17 03:06:00,57.0,55.9,29.68,SW,224,15.2,15.2,96,0.04,,,0.08,0.00,VWS V14.01,2013-11-17 08:06:00,
2013-11-17 03:08:00,56.5,55.5,29.69,SSW,192,22.9,22.9,96,0.08,,,0.12,0.00,VWS V14.01,2013-11-17 08:08:00,
2013-11-17 03:09:00,56.4,55.4,29.67,SSW,193,17.6,22.9,97,0.08,,,0.12,0.00,VWS V14.01,2013-11-17 08:09:00,
2013-11-17 03:10:00,56.2,55.3,29.67,South,189,17.6,17.6,97,0.08,,,0.12,0.00,VWS V14.01,2013-11-17 08:10:00,
2013-11-17 03:11:00,56.5,55.5,29.67,SSW,200,15.3,17.6,97,0.08,,,0.12,0.12,VWS V14.01,2013-11-17 08:11:00,
2013-11-17 03:12:00,56.5,55.7,29.68,SSW,192,18.8,19.3,97,0.12,,,0.16,0.00,VWS V14.01,2013-11-17 08:12:00,
2013-11-17 03:15:00,57.2,56.6,29.68,South,185,18.8,18.8,98,0.12,,,0.16,0.00,VWS V14.01,2013-11-17 08:15:00,
2013-11-17 03:16:00,57.2,56.6,29.68,South,185,18.8,18.8,98,0.12,,,0.16,0.00,VWS V14.01,2013-11-17 08:16:00,
2013-11-17 03:17:00,57.3,56.6,29.67,SSW,196,17.0,20.0,97,0.12,,,0.16,0.00,VWS V14.01,2013-11-17 08:17:00,
2013-11-17 03:18:00,57.0,56.2,29.67,SSW,201,10.5,17.0,97,0.12,,,0.16,0.00,VWS V14.01,2013-11-17 08:18:00,
2013-11-17 03:21:00,56.9,55.9,29.67,SSW,201,8.8,14.5,97,0.12,,,0.16,0.00,VWS V14.01,2013-11-17 08:21:00,
2013-11-17 03:22:00,57.3,55.5,29.67,South,189,11.2,11.2,94,0.12,,,0.16,0.00,VWS V14.01,2013-11-17 08:22:00,
2013-11-17 03:23:00,57.5,56.5,29.67,SSW,200,12.3,19.8,96,0.12,,,0.16,0.00,VWS V14.01,2013-11-17 08:23:00,
2013-11-17 03:24:00,57.2,56.0,29.67,SSW,197,11.6,12.3,96,0.12,,,0.16,0.00,VWS V14.01,2013-11-17 08:24:00,
2013-11-17 03:27:00,57.3,56.0,29.66,South,169,12.8,12.8,95,0.12,,,0.16,0.00,VWS V14.01,2013-11-17 08:27:00,
2013-11-17 03:28:00,57.5,56.2,29.66,SSW,204,17.0,17.0,95,0.12,,,0.16,0.00,VWS V14.01,2013-11-17 08:28:00,
2013-11-17 03:29:00,57.4,56.1,29.66,SSW,208,15.8,17.0,95,0.12,,,0.16,0.00,VWS V14.01,2013-11-17 08:29:00,
2013-11-17 03:30:00,57.1,55.6,29.66,SSW,192,9.7,15.8,95,0.12,,,0.16,0.43,VWS V14.01,2013-11-17 08:30:00,
2013-11-17 03:32:00,57.4,55.9,29.66,SSW,192,11.6,15.7,95,0.12,,,0.16,0.00,VWS V14.01,2013-11-17 08:32:00,
2013-11-17 03:34:00,57.4,56.0,29.67,South,182,13.1,13.1,95,0.12,,,0.16,0.00,VWS V14.01,2013-11-17 08:34:00,
2013-11-17 03:35:00,58.0,56.5,29.67,SSW,201,21.8,21.8,95,0.12,,,0.16,0.00,VWS V14.01,2013-11-17 08:35:00,
2013-11-17 03:38:00,57.6,55.9,29.67,SSW,193,17.0,17.0,94,0.12,,,0.16,0.00,VWS V14.01,2013-11-17 08:38:00,
2013-11-17 03:40:00,57.5,55.9,29.67,SSW,196,19.3,19.3,94,0.12,,,0.16,0.43,VWS V14.01,2013-11-17 08:40:00,
2013-11-17 03:41:00,57.6,55.9,29.67,South,178,18.6,20.3,94,0.12,,,0.16,0.00,VWS V14.01,2013-11-17 08:41:00,
2013-11-17 03:44:00,57.4,55.7,29.66,SSW,207,17.9,19.3,94,0.12,,,0.16,0.00,VWS V14.01,2013-11-17 08:44:00,
2013-11-17 03:45:00,57.6,55.8,29.66,SSW,206,17.2,17.2,94,0.12,,,0.16,0.00,VWS V14.01,2013-11-17 08:45:00,
2013-11-17 03:46:00,57.2,55.4,29.66,SSW,193,10.4,17.2,94,0.12,,,0.16,0.00,VWS V14.01,2013-11-17 08:46:00,
2013-11-17 03:48:00,57.7,55.9,29.66,SSW,202,18.4,18.4,94,0.12,,,0.16,0.43,VWS V14.01,2013-11-17 08:48:00,
2013-11-17 03:49:00,57.6,55.8,29.67,SSW,202,16.0,20.5,94,0.12,,,0.16,0.12,VWS V14.01,2013-11-17 08:49:00,
2013-11-17 03:50:00,57.6,55.8,29.67,SSW,202,16.0,20.5,94,0.12,,,0.16,0.12,VWS V14.01,2013-11-17 08:50:00,
2013-11-17 03:51:00,57.7,55.7,29.66,South,183,18.4,18.4,93,0.12,,,0.16,0.00,VWS V14.01,2013-11-17 08:51:00,
2013-11-17 03:54:00,57.2,55.2,29.66,South,169,11.6,16.0,93,0.12,,,0.16,0.98,VWS V14.01,2013-11-17 08:54:00,
2013-11-17 03:55:00,57.2,55.2,29.66,South,169,11.6,16.0,93,0.12,,,0.16,0.98,VWS V14.01,2013-11-17 08:55:00,
2013-11-17 03:56:00,57.6,55.7,29.66,South,186,15.5,15.5,93,0.12,,,0.16,0.00,VWS V14.01,2013-11-17 08:56:00,
2013-11-17 03:57:00,57.6,55.7,29.66,SSW,195,13.6,15.5,93,0.12,,,0.16,0.00,VWS V14.01,2013-11-17 08:57:00,
2013-11-17 03:58:00,57.5,55.5,29.65,SSW,198,12.6,13.6,93,0.12,,,0.16,0.00,VWS V14.01,2013-11-17 08:58:00,
2013-11-17 04:01:00,57.7,55.8,29.66,South,183,14.8,14.8,93,0.12,,,0.16,0.43,VWS V14.01,2013-11-17 09:01:00,
2013-11-17 04:03:00,57.7,54.5,29.66,SSW,209,12.4,14.8,89,0.08,,,0.16,0.43,VWS V14.01,2013-11-17 09:03:00,
2013-11-17 04:04:00,57.7,55.8,29.66,South,178,13.3,14.6,93,0.08,,,0.16,0.00,VWS V14.01,2013-11-17 09:04:00,
2013-11-17 04:06:00,57.8,56.0,29.66,SW,234,14.5,18.4,94,0.08,,,0.16,0.12,VWS V14.01,2013-11-17 09:06:00,
2013-11-17 04:07:00,57.6,55.7,29.66,SW,214,10.9,18.4,93,0.08,,,0.16,0.00,VWS V14.01,2013-11-17 09:07:00,
2013-11-17 04:09:00,57.5,55.6,29.67,SSW,201,9.0,13.6,93,0.04,,,0.16,0.00,VWS V14.01,2013-11-17 09:09:00,
2013-11-17 04:10:00,57.7,55.9,29.66,SSW,209,13.5,13.5,94,0.04,,,0.16,0.00,VWS V14.01,2013-11-17 09:10:00,
2013-11-17 04:11:00,57.7,55.9,29.66,SSW,208,12.4,13.5,94,0.04,,,0.16,0.00,VWS V14.01,2013-11-17 09:11:00,
2013-11-17 04:12:00,57.7,55.9,29.66,SSW,204,12.6,12.6,94,0.04,,,0.16,0.00,VWS V14.01,2013-11-17 09:12:00,
2013-11-17 04:14:00,57.6,55.8,29.66,SW,222,11.1,12.9,94,0.00,,,0.16,0.73,VWS V14.01,2013-11-17 09:14:00,
2013-11-17 04:15:00,57.8,56.0,29.66,SSW,203,18.8,18.8,94,0.00,,,0.16,0.00,VWS V14.01,2013-11-17 09:15:00,
2013-11-17 04:18:00,57.6,55.7,29.66,SSW,203,12.3,12.8,93,0.00,,,0.16,0.00,VWS V14.01,2013-11-17 09:18:00,
2013-11-17 04:19:00,57.5,55.6,29.66,SSW,197,12.4,12.8,93,0.00,,,0.16,0.12,VWS V14.01,2013-11-17 09:19:00,
2013-11-17 04:20:00,57.3,55.4,29.66,SSW,193,10.9,12.4,93,0.00,,,0.16,0.00,VWS V14.01,2013-11-17 09:20:00,
2013-11-17 04:21:00,57.9,55.3,29.66,SSW,197,13.5,13.5,91,0.00,,,0.16,0.00,VWS V14.01,2013-11-17 09:21:00,
2013-11-17 04:23:00,57.6,55.9,29.66,SSW,202,12.4,17.7,94,0.00,,,0.16,0.00,VWS V14.01,2013-11-17 09:23:00,
2013-11-17 04:25:00,57.7,56.0,29.66,SSW,204,13.5,13.6,94,0.00,,,0.16,0.00,VWS V14.01,2013-11-17 09:25:00,
2013-11-17 04:26:00,57.5,55.7,29.66,SW,223,11.4,16.5,94,0.00,,,0.16,0.00,VWS V14.01,2013-11-17 09:26:00,
2013-11-17 04:27:00,57.7,55.9,29.66,SSW,198,12.9,12.9,94,0.00,,,0.16,0.00,VWS V14.01,2013-11-17 09:27:00,
2013-11-17 04:28:00,57.7,55.8,29.66,SSW,195,11.6,14.1,93,0.00,,,0.16,0.00,VWS V14.01,2013-11-17 09:28:00,
2013-11-17 04:30:00,57.5,55.7,29.67,SSW,203,11.6,12.6,94,0.00,,,0.16,0.00,VWS V14.01,2013-11-17 09:30:00,
2013-11-17 04:31:00,57.6,55.8,29.67,SSW,208,13.1,13.1,94,0.00,,,0.16,0.00,VWS V14.01,2013-11-17 09:31:00,
2013-11-17 04:33:00,57.5,55.7,29.66,SSW,197,9.7,11.1,94,0.00,,,0.16,0.00,VWS V14.01,2013-11-17 09:33:00,
2013-11-17 04:34:00,57.5,55.8,29.66,SSW,211,11.6,12.9,94,0.00,,,0.16,0.00,VWS V14.01,2013-11-17 09:34:00,
2013-11-17 04:35:00,57.7,56.0,29.66,SW,214,15.0,15.0,94,0.00,,,0.16,0.00,VWS V14.01,2013-11-17 09:35:00,
2013-11-17 04:37:00,57.6,55.9,29.66,SW,214,9.7,9.7,94,0.00,,,0.16,0.00,VWS V14.01,2013-11-17 09:37:00,
2013-11-17 04:38:00,57.5,55.8,29.67,SSW,201,7.5,10.7,94,0.00,,,0.16,0.00,VWS V14.01,2013-11-17 09:38:00,
2013-11-17 04:39:00,57.6,55.8,29.67,SSW,205,9.2,9.2,94,0.00,,,0.16,0.00,VWS V14.01,2013-11-17 09:39:00,
2013-11-17 04:40:00,58.1,55.3,29.66,SSW,197,13.8,13.8,90,0.00,,,0.16,0.00,VWS V14.01,2013-11-17 09:40:00,
2013-11-17 04:42:00,58.0,56.1,29.67,SW,221,13.8,13.8,94,0.00,,,0.16,0.00,VWS V14.01,2013-11-17 09:42:00,
2013-11-17 04:43:00,58.0,55.3,29.67,SSW,208,14.8,14.8,91,0.00,,,0.16,0.00,VWS V14.01,2013-11-17 09:43:00,
2013-11-17 04:44:00,58.0,55.3,29.67,SSW,208,14.8,14.8,91,0.00,,,0.16,0.00,VWS V14.01,2013-11-17 09:44:00,
2013-11-17 04:46:00,57.5,55.6,29.66,SW,219,10.0,14.8,93,0.00,,,0.16,0.00,VWS V14.01,2013-11-17 09:46:00,
2013-11-17 04:48:00,57.5,55.6,29.66,SSW,208,8.1,8.1,93,0.00,,,0.16,0.00,VWS V14.01,2013-11-17 09:48:00,
2013-11-17 04:49:00,57.8,56.1,29.66,SW,218,12.4,12.4,94,0.00,,,0.16,0.00,VWS V14.01,2013-11-17 09:49:00,
2013-11-17 04:51:00,57.5,55.7,29.67,SSW,195,7.5,11.1,94,0.00,,,0.16,0.00,VWS V14.01,2013-11-17 09:51:00,
2013-11-17 04:53:00,57.9,56.2,29.66,SSW,198,13.5,13.5,94,0.00,,,0.16,0.00,VWS V14.01,2013-11-17 09:53:00,
2013-11-17 04:54:00,57.2,55.4,29.66,South,190,8.1,8.1,94,0.00,,,0.16,0.00,VWS V14.01,2013-11-17 09:54:00,
2013-11-17 04:55:00,57.2,55.4,29.66,South,190,8.1,8.1,94,0.00,,,0.16,0.00,VWS V14.01,2013-11-17 09:55:00,
2013-11-17 04:58:00,57.8,56.0,29.66,SSW,203,12.6,12.6,94,0.00,,,0.16,0.00,VWS V14.01,2013-11-17 09:58:00,
2013-11-17 05:00:00,57.3,55.6,29.66,SW,225,9.7,9.7,94,0.00,,,0.16,0.00,VWS V14.01,2013-11-17 10:00:00,
2013-11-17 05:03:00,57.5,56.0,29.66,SW,215,8.0,9.0,95,0.00,,,0.16,0.00,VWS V14.01,2013-11-17 10:03:00,
2013-11-17 05:05:00,57.5,56.0,29.66,SW,225,8.5,8.5,95,0.00,,,0.16,0.43,VWS V14.01,2013-11-17 10:05:00,
2013-11-17 05:06:00,57.5,56.0,29.66,SSW,209,7.6,8.5,95,0.00,,,0.16,0.00,VWS V14.01,2013-11-17 10:06:00,
2013-11-17 05:07:00,57.7,56.3,29.66,SSW,203,11.2,11.2,95,0.00,,,0.16,0.00,VWS V14.01,2013-11-17 10:07:00,
2013-11-17 05:08:00,57.5,55.9,29.66,SSW,203,8.3,8.3,94,0.00,,,0.16,0.00,VWS V14.01,2013-11-17 10:08:00,
2013-11-17 05:09:00,57.4,55.8,29.66,SSW,203,7.6,8.3,94,0.00,,,0.16,0.00,VWS V14.01,2013-11-17 10:09:00,
2013-11-17 05:11:00,57.4,55.8,29.66,SW,219,6.8,8.7,94,0.00,,,0.16,0.00,VWS V14.01,2013-11-17 10:11:00,
2013-11-17 05:12:00,57.2,55.6,29.66,SSW,212,6.1,7.1,94,0.00,,,0.16,0.00,VWS V14.01,2013-11-17 10:12:00,
2013-11-17 05:14:00,57.5,56.0,29.66,SSW,204,9.5,9.5,95,0.00,,,0.16,0.00,VWS V14.01,2013-11-17 10:14:00,
2013-11-17 05:15:00,57.3,55.8,29.66,SSW,213,6.1,9.5,95,0.00,,,0.16,0.00,VWS V14.01,2013-11-17 10:15:00,
2013-11-17 05:17:00,57.5,55.9,29.66,SW,221,6.8,6.8,95,0.00,,,0.16,0.00,VWS V14.01,2013-11-17 10:17:00,
2013-11-17 05:18:00,57.3,55.7,29.66,SSW,209,6.9,8.0,95,0.00,,,0.16,0.00,VWS V14.01,2013-11-17 10:18:00,
2013-11-17 05:19:00,57.5,56.0,29.66,SW,228,8.8,8.8,95,0.00,,,0.16,0.12,VWS V14.01,2013-11-17 10:19:00,
2013-11-17 05:20:00,57.5,56.0,29.66,SW,215,8.1,8.8,94,0.00,,,0.16,0.00,VWS V14.01,2013-11-17 10:20:00,
2013-11-17 05:22:00,57.4,55.8,29.65,SSW,195,5.7,6.8,94,0.00,,,0.16,0.00,VWS V14.01,2013-11-17 10:22:00,
2013-11-17 05:23:00,57.5,55.8,29.66,SSW,205,6.6,6.8,94,0.00,,,0.16,0.00,VWS V14.01,2013-11-17 10:23:00,
2013-11-17 05:24:00,57.5,55.8,29.66,SSW,205,6.6,6.8,94,0.00,,,0.16,0.00,VWS V14.01,2013-11-17 10:24:00,
2013-11-17 05:26:00,57.9,56.2,29.66,SW,217,8.3,8.3,94,0.00,,,0.16,0.12,VWS V14.01,2013-11-17 10:26:00,
2013-11-17 05:27:00,57.8,56.1,29.67,SW,225,9.3,9.3,94,0.00,,,0.16,0.00,VWS V14.01,2013-11-17 10:27:00,
2013-11-17 05:28:00,57.5,55.7,29.67,SSW,205,6.8,9.3,94,0.00,,,0.16,0.00,VWS V14.01,2013-11-17 10:28:00,
2013-11-17 05:31:00,57.6,55.8,29.66,SSW,207,9.7,9.7,94,0.00,,,0.16,0.00,VWS V14.01,2013-11-17 10:31:00,
2013-11-17 05:33:00,57.5,55.5,29.66,SSW,200,5.2,7.1,93,0.00,,,0.16,0.12,VWS V14.01,2013-11-17 10:33:00,
2013-11-17 05:34:00,57.7,55.8,29.66,SSW,194,6.6,6.6,93,0.00,,,0.16,0.43,VWS V14.01,2013-11-17 10:34:00,
2013-11-17 05:35:00,57.5,55.5,29.66,SSW,210,7.3,7.3,93,0.00,,,0.16,0.00,VWS V14.01,2013-11-17 10:35:00,
2013-11-17 05:36:00,57.6,55.5,29.66,SSW,209,8.3,11.7,93,0.00,,,0.16,0.00,VWS V14.01,2013-11-17 10:36:00,
2013-11-17 05:39:00,57.5,55.3,29.66,SSW,203,8.7,8.7,92,0.00,,,0.16,0.00,VWS V14.01,2013-11-17 10:39:00,
2013-11-17 05:41:00,57.3,55.1,29.69,SSW,196,6.9,8.8,92,0.00,,,0.16,0.00,VWS V14.01,2013-11-17 10:41:00,
2013-11-17 05:42:00,57.3,55.1,29.69,SSW,196,6.9,8.8,92,0.00,,,0.16,0.00,VWS V14.01,2013-11-17 10:42:00,
2013-11-17 05:43:00,57.2,55.0,29.66,SW,214,6.8,8.0,92,0.00,,,0.16,0.00,VWS V14.01,2013-11-17 10:43:00,
2013-11-17 05:45:00,57.5,55.1,29.67,SSW,210,9.0,10.0,92,0.00,,,0.16,0.00,VWS V14.01,2013-11-17 10:45:00,
2013-11-17 05:47:00,57.4,55.0,29.69,SSW,192,8.8,8.8,92,0.00,,,0.16,0.00,VWS V14.01,2013-11-17 10:47:00,
2013-11-17 05:50:00,57.3,54.8,29.66,SSW,197,6.9,10.4,91,0.00,,,0.16,0.00,VWS V14.01,2013-11-17 10:50:00,
2013-11-17 05:51:00,57.2,54.7,29.66,SW,220,7.3,7.3,91,0.00,,,0.16,0.43,VWS V14.01,2013-11-17 10:51:00,
2013-11-17 05:52:00,57.1,53.3,29.66,SSW,205,8.1,8.7,87,0.00,,,0.16,0.00,VWS V14.01,2013-11-17 10:52:00,
2013-11-17 05:54:00,57.5,55.0,29.67,SSW,205,11.4,12.6,91,0.00,,,0.16,0.00,VWS V14.01,2013-11-17 10:54:00,
2013-11-17 05:55:00,57.6,55.1,29.66,SSW,194,12.8,12.8,91,0.00,,,0.16,0.00,VWS V14.01,2013-11-17 10:55:00,
2013-11-17 05:56:00,57.3,54.7,29.66,South,189,10.2,10.2,91,0.00,,,0.16,0.00,VWS V14.01,2013-11-17 10:56:00,
2013-11-17 05:59:00,57.1,54.6,29.66,SSW,202,12.3,12.3,91,0.00,,,0.00,0.00,VWS V14.01,2013-11-17 10:59:00,
2013-11-17 06:01:00,57.1,54.6,29.66,SSW,202,12.3,12.3,91,0.00,,,0.16,0.00,VWS V14.01,2013-11-17 11:01:00,
2013-11-17 06:02:00,57.0,54.5,29.67,SSW,202,8.1,11.4,91,0.00,,,0.16,0.00,VWS V14.01,2013-11-17 11:02:00,
2013-11-17 06:05:00,57.1,54.7,29.66,SSW,208,13.6,13.8,92,0.00,,,0.16,0.43,VWS V14.01,2013-11-17 11:05:00,
2013-11-17 06:06:00,56.9,54.6,29.66,SSW,196,12.4,12.4,92,0.00,,,0.16,0.12,VWS V14.01,2013-11-17 11:06:00,
2013-11-17 06:07:00,56.7,54.5,29.66,SSW,194,11.6,12.4,92,0.00,,,0.16,0.00,VWS V14.01,2013-11-17 11:07:00,
2013-11-17 06:08:00,56.9,54.7,29.66,SW,227,11.9,11.9,92,0.00,,,0.16,0.00,VWS V14.01,2013-11-17 11:08:00,
2013-11-17 06:12:00,56.0,54.4,29.67,SSW,212,8.3,8.3,94,0.04,,,0.20,0.43,VWS V14.01,2013-11-17 11:12:00,
2013-11-17 06:13:00,56.2,54.6,29.66,SSW,204,12.3,12.3,94,0.04,,,0.20,0.00,VWS V14.01,2013-11-17 11:13:00,
2013-11-17 06:14:00,56.1,54.7,29.67,SSW,211,11.4,11.4,95,0.04,,,0.20,0.00,VWS V14.01,2013-11-17 11:14:00,
2013-11-17 06:15:00,56.7,53.5,29.66,SSW,201,11.1,11.4,89,0.04,,,0.20,0.00,VWS V14.01,2013-11-17 11:15:00,
2013-11-17 06:18:00,56.6,55.1,29.66,SSW,205,9.9,12.3,95,0.04,,,0.20,0.00,VWS V14.01,2013-11-17 11:18:00,
2013-11-17 06:19:00,56.5,54.9,29.66,SSW,204,6.8,12.3,95,0.04,,,0.20,0.12,VWS V14.01,2013-11-17 11:19:00,
2013-11-17 06:20:00,56.7,54.3,29.66,SSW,209,11.6,11.6,92,0.04,,,0.20,0.00,VWS V14.01,2013-11-17 11:20:00,
2013-11-17 06:23:00,56.2,53.7,29.66,SSW,204,7.3,9.3,91,0.08,,,0.24,0.00,VWS V14.01,2013-11-17 11:23:00,
2013-11-17 06:24:00,56.3,54.8,29.66,SSW,209,10.0,10.0,95,0.08,,,0.24,0.73,VWS V14.01,2013-11-17 11:24:00,
2013-11-17 06:25:00,56.5,55.2,29.66,SSW,212,11.4,11.4,95,0.08,,,0.24,0.00,VWS V14.01,2013-11-17 11:25:00,
2013-11-17 06:26:00,56.4,55.1,29.66,SSW,205,13.8,15.5,95,0.08,,,0.24,0.00,VWS V14.01,2013-11-17 11:26:00,
2013-11-17 06:28:00,56.5,55.1,29.66,SW,221,14.0,16.5,95,0.08,,,0.24,0.00,VWS V14.01,2013-11-17 11:28:00,
2013-11-17 06:29:00,56.1,54.7,29.65,SW,223,15.2,15.2,95,0.08,,,0.00,0.00,VWS V14.01,2013-11-17 11:29:00,
2013-11-17 06:30:00,55.8,54.5,29.66,South,188,6.3,6.3,95,0.08,,,0.24,0.00,VWS V14.01,2013-11-17 11:30:00,
2013-11-17 06:31:00,56.1,54.8,29.66,SSW,200,12.4,12.4,95,0.08,,,0.24,0.00,VWS V14.01,2013-11-17 11:31:00,
2013-11-17 06:33:00,56.3,55.1,29.66,SW,215,16.9,16.9,96,0.12,,,0.28,0.00,VWS V14.01,2013-11-17 11:33:00,
2013-11-17 06:35:00,56.4,55.2,29.66,SSW,209,17.2,17.2,96,0.12,,,0.28,0.00,VWS V14.01,2013-11-17 11:35:00,
2013-11-17 06:36:00,56.4,55.1,29.66,SSW,196,18.2,18.2,95,0.12,,,0.28,0.00,VWS V14.01,2013-11-17 11:36:00,
2013-11-17 06:37:00,56.2,54.8,29.66,SSW,205,13.6,18.2,95,0.12,,,0.28,0.00,VWS V14.01,2013-11-17 11:37:00,
2013-11-17 06:38:00,56.3,54.8,29.66,SSW,194,12.8,13.6,95,0.12,,,0.28,0.00,VWS V14.01,2013-11-17 11:38:00,
2013-11-17 06:40:00,56.2,54.6,29.66,SSW,203,12.9,15.2,95,0.12,,,0.28,0.43,VWS V14.01,2013-11-17 11:40:00,
2013-11-17 06:41:00,55.8,54.3,29.66,South,190,12.3,12.3,95,0.16,,,0.31,0.00,VWS V14.01,2013-11-17 11:41:00,
2013-11-17 06:44:00,56.5,55.2,29.65,SSW,203,12.9,12.9,95,0.16,,,0.31,0.00,VWS V14.01,2013-11-17 11:44:00,
2013-11-17 06:46:00,57.2,55.4,29.66,SSW,196,14.5,14.5,94,0.16,,,0.31,0.00,VWS V14.01,2013-11-17 11:46:00,
2013-11-17 06:47:00,57.2,54.7,29.66,SSE,163,12.3,17.6,91,0.16,,,0.31,0.00,VWS V14.01,2013-11-17 11:47:00,
2013-11-17 06:49:00,56.5,53.7,29.66,South,182,8.8,11.2,90,0.20,,,0.35,0.43,VWS V14.01,2013-11-17 11:49:00,
2013-11-17 06:50:00,56.5,53.7,29.66,South,182,8.8,11.2,90,0.20,,,0.35,0.43,VWS V14.01,2013-11-17 11:50:00,
2013-11-17 06:51:00,56.3,52.8,29.66,South,183,6.9,12.1,88,0.20,,,0.35,0.00,VWS V14.01,2013-11-17 11:51:00,
2013-11-17 06:52:00,57.2,54.5,29.66,SSW,197,11.4,11.4,91,0.20,,,0.35,0.12,VWS V14.01,2013-11-17 11:52:00,
2013-11-17 06:53:00,57.4,54.4,29.66,SSW,198,14.8,15.8,90,0.20,,,0.35,0.00,VWS V14.01,2013-11-17 11:53:00,
2013-11-17 06:55:00,56.9,53.5,29.66,SSW,200,11.9,13.1,88,0.20,,,0.35,0.00,VWS V14.01,2013-11-17 11:55:00,
2013-11-17 06:56:00,57.1,53.7,29.65,South,190,13.5,13.5,88,0.20,,,0.35,0.00,VWS V14.01,2013-11-17 11:56:00,
2013-11-17 06:57:00,57.1,53.7,29.65,South,190,13.5,13.5,88,0.20,,,0.35,0.00,VWS V14.01,2013-11-17 11:57:00,
2013-11-17 06:58:00,56.4,52.9,29.65,South,185,6.9,11.1,88,0.20,,,0.35,0.00,VWS V14.01,2013-11-17 11:58:00,
2013-11-17 06:59:00,56.6,53.3,29.65,South,188,11.6,11.6,89,0.20,,,0.35,0.00,VWS V14.01,2013-11-17 11:59:00,
2013-11-17 07:01:00,56.5,53.2,29.66,South,183,9.9,11.6,89,0.20,,,0.35,0.00,VWS V14.01,2013-11-17 12:01:00,
2013-11-17 07:02:00,56.4,53.2,29.65,SSW,198,9.3,11.6,89,0.20,,,0.35,0.00,VWS V14.01,2013-11-17 12:02:00,
2013-11-17 07:03:00,56.9,53.9,29.65,SSW,200,12.8,12.8,90,0.20,,,0.35,0.00,VWS V14.01,2013-11-17 12:03:00,
2013-11-17 07:04:00,56.5,53.4,29.66,South,178,11.9,12.8,89,0.20,,,0.35,0.00,VWS V14.01,2013-11-17 12:04:00,
2013-11-17 07:07:00,56.3,53.1,29.66,SSW,199,5.2,14.0,89,0.20,,,0.35,0.00,VWS V14.01,2013-11-17 12:07:00,
2013-11-17 07:09:00,56.3,53.2,29.67,South,189,5.9,14.0,90,0.20,,,0.35,0.00,VWS V14.01,2013-11-17 12:09:00,
2013-11-17 07:10:00,56.6,53.7,29.66,SSW,198,8.8,14.0,90,0.20,,,0.35,0.00,VWS V14.01,2013-11-17 12:10:00,
2013-11-17 07:11:00,56.4,53.5,29.66,SSW,209,6.4,14.0,90,0.20,,,0.35,0.00,VWS V14.01,2013-11-17 12:11:00,
2013-11-17 07:12:00,56.9,54.0,29.66,South,172,10.5,14.0,90,0.20,,,0.35,0.00,VWS V14.01,2013-11-17 12:12:00,
2013-11-17 07:13:00,56.7,53.6,29.65,South,191,10.0,14.0,89,0.20,,,0.35,0.00,VWS V14.01,2013-11-17 12:13:00,
2013-11-17 07:15:00,56.3,53.1,29.66,South,191,7.1,14.0,89,0.20,,,0.35,0.00,VWS V14.01,2013-11-17 12:15:00,
2013-11-17 07:16:00,56.5,53.3,29.66,SW,221,8.8,14.0,89,0.20,,,0.35,0.00,VWS V14.01,2013-11-17 12:16:00,
2013-11-17 07:18:00,56.8,53.8,29.66,South,183,8.7,14.0,90,0.20,,,0.35,0.06,VWS V14.01,2013-11-17 12:18:00,
2013-11-17 07:20:00,56.3,53.2,29.66,South,178,5.4,14.0,89,0.20,,,0.35,0.00,VWS V14.01,2013-11-17 12:20:00,
2013-11-17 07:21:00,56.8,53.8,29.66,SSW,202,14.8,14.8,90,0.20,,,0.35,0.00,VWS V14.01,2013-11-17 12:21:00,
2013-11-17 07:22:00,57.0,53.9,29.66,SSW,196,13.6,14.8,90,0.20,,,0.35,0.00,VWS V14.01,2013-11-17 12:22:00,
2013-11-17 07:23:00,56.7,53.6,29.66,SSW,212,12.1,14.8,89,0.20,,,0.35,0.06,VWS V14.01,2013-11-17 12:23:00,
2013-11-17 07:24:00,56.4,52.3,29.66,SSW,197,9.3,14.8,86,0.20,,,0.35,0.00,VWS V14.01,2013-11-17 12:24:00,
2013-11-17 07:27:00,56.5,53.5,29.66,South,183,8.5,14.8,90,0.20,,,0.35,0.00,VWS V14.01,2013-11-17 12:27:00,
2013-11-17 07:29:00,56.8,53.9,29.66,South,185,11.9,14.8,90,0.20,,,0.35,0.00,VWS V14.01,2013-11-17 12:29:00,
2013-11-17 07:31:00,56.5,53.7,29.65,SSW,198,14.3,14.8,90,0.20,,,0.35,0.00,VWS V14.01,2013-11-17 12:31:00,
2013-11-17 07:32:00,56.4,53.5,29.66,South,190,10.4,14.8,90,0.20,,,0.35,0.00,VWS V14.01,2013-11-17 12:32:00,
2013-11-17 07:33:00,56.5,53.7,29.66,South,190,9.7,14.8,90,0.20,,,0.35,0.00,VWS V14.01,2013-11-17 12:33:00,
2013-11-17 07:34:00,56.3,53.5,29.66,SSW,194,9.9,14.8,90,0.20,,,0.35,1.10,VWS V14.01,2013-11-17 12:34:00,
2013-11-17 07:37:00,56.8,54.2,29.66,South,183,14.1,14.8,91,0.20,,,0.35,0.55,VWS V14.01,2013-11-17 12:37:00,
2013-11-17 07:38:00,56.3,53.7,29.66,South,177,11.4,14.8,91,0.20,,,0.35,0.00,VWS V14.01,2013-11-17 12:38:00,
2013-11-17 07:39:00,56.2,53.5,29.68,SSW,204,8.5,14.8,91,0.20,,,0.35,0.06,VWS V14.01,2013-11-17 12:39:00,
2013-11-17 07:40:00,56.2,53.6,29.66,SSW,205,10.9,14.8,91,0.20,,,0.35,0.12,VWS V14.01,2013-11-17 12:40:00,
2013-11-17 07:41:00,56.1,53.6,29.67,South,178,6.4,14.8,91,0.20,,,0.35,0.79,VWS V14.01,2013-11-17 12:41:00,
2013-11-17 07:44:00,56.3,52.5,29.66,South,187,9.5,14.8,87,0.20,,,0.35,1.47,VWS V14.01,2013-11-17 12:44:00,
2013-11-17 07:45:00,56.5,54.2,29.66,South,190,13.8,14.8,92,0.20,,,0.35,2.56,VWS V14.01,2013-11-17 12:45:00,
2013-11-17 07:47:00,56.6,54.1,29.66,South,186,12.9,14.8,92,0.20,,,0.35,2.01,VWS V14.01,2013-11-17 12:47:00,
2013-11-17 07:50:00,56.3,53.9,29.66,SSW,193,11.7,14.8,92,0.20,,,0.35,2.26,VWS V14.01,2013-11-17 12:50:00,
2013-11-17 07:52:00,56.0,53.0,29.65,South,180,6.6,14.8,89,0.20,,,0.35,2.87,VWS V14.01,2013-11-17 12:52:00,
2013-11-17 07:53:00,56.2,54.0,29.65,SSW,201,8.8,14.8,92,0.20,,,0.35,1.95,VWS V14.01,2013-11-17 12:53:00,
2013-11-17 07:54:00,56.2,54.0,29.65,SSW,197,8.3,14.8,92,0.20,,,0.35,2.56,VWS V14.01,2013-11-17 12:54:00,
2013-11-17 07:56:00,56.6,54.5,29.66,SSW,198,12.4,14.8,93,0.20,,,0.35,2.56,VWS V14.01,2013-11-17 12:56:00,
2013-11-17 07:57:00,56.3,54.2,29.66,South,186,9.9,14.8,92,0.20,,,0.35,2.26,VWS V14.01,2013-11-17 12:57:00,
2013-11-17 07:58:00,56.5,54.4,29.66,South,190,13.3,14.8,92,0.20,,,0.35,2.26,VWS V14.01,2013-11-17 12:58:00,
2013-11-17 07:59:00,56.2,54.1,29.65,SSW,193,11.6,14.8,93,0.20,,,0.35,1.95,VWS V14.01,2013-11-17 12:59:00,
2013-11-17 08:01:00,56.8,54.8,29.65,SSW,203,13.8,14.8,93,0.20,,,0.35,3.17,VWS V14.01,2013-11-17 13:01:00,
2013-11-17 08:02:00,56.5,54.5,29.65,SSW,202,12.3,13.8,93,0.20,,,0.35,3.17,VWS V14.01,2013-11-17 13:02:00,
2013-11-17 08:03:00,56.2,54.1,29.66,SSW,196,9.3,12.3,93,0.20,,,0.35,2.26,VWS V14.01,2013-11-17 13:03:00,
2013-11-17 08:04:00,56.4,54.4,29.66,SSW,209,10.2,10.2,93,0.20,,,0.35,2.26,VWS V14.01,2013-11-17 13:04:00,
2013-11-17 08:06:00,56.3,54.4,29.66,SSW,199,9.2,9.2,93,0.20,,,0.35,2.26,VWS V14.01,2013-11-17 13:06:00,
2013-11-17 08:08:00,56.2,54.4,29.66,South,183,9.2,9.2,94,0.20,,,0.35,9.28,VWS V14.01,2013-11-17 13:08:00,
2013-11-17 08:09:00,56.2,54.4,29.66,South,183,9.2,9.2,94,0.20,,,0.35,9.28,VWS V14.01,2013-11-17 13:09:00,
2013-11-17 08:10:00,56.6,55.0,29.66,South,179,11.7,11.7,94,0.16,,,0.35,14.47,VWS V14.01,2013-11-17 13:10:00,
2013-11-17 08:11:00,56.1,54.4,29.65,South,188,8.0,14.6,94,0.16,,,0.35,15.93,VWS V14.01,2013-11-17 13:11:00,
2013-11-17 08:12:00,56.1,54.4,29.67,SSW,196,8.5,14.6,94,0.16,,,0.35,16.61,VWS V14.01,2013-11-17 13:12:00,
2013-11-17 08:14:00,56.2,54.5,29.65,South,187,8.1,8.1,94,0.16,,,0.35,10.07,VWS V14.01,2013-11-17 13:14:00,
2013-11-17 08:15:00,56.2,54.6,29.67,South,188,6.3,7.5,94,0.16,,,0.35,6.41,VWS V14.01,2013-11-17 13:15:00,
2013-11-17 08:16:00,56.2,54.6,29.65,South,176,6.8,6.8,94,0.16,,,0.35,7.08,VWS V14.01,2013-11-17 13:16:00,
2013-11-17 08:17:00,56.2,54.6,29.65,South,188,6.8,8.0,94,0.16,,,0.35,6.53,VWS V14.01,2013-11-17 13:17:00,
2013-11-17 08:19:00,56.2,54.7,29.65,South,188,8.0,8.8,95,0.16,,,0.35,6.41,VWS V14.01,2013-11-17 13:19:00,
2013-11-17 08:21:00,56.3,54.7,29.65,South,170,9.2,9.5,95,0.16,,,0.35,7.45,VWS V14.01,2013-11-17 13:21:00,
2013-11-17 08:22:00,55.9,54.4,29.65,South,182,4.5,9.2,95,0.16,,,0.35,7.14,VWS V14.01,2013-11-17 13:22:00,
2013-11-17 08:23:00,56.3,54.8,29.65,SSW,200,9.3,9.3,95,0.12,,,0.35,6.17,VWS V14.01,2013-11-17 13:23:00,
2013-11-17 08:24:00,56.1,54.6,29.65,South,178,8.0,9.3,95,0.12,,,0.35,8.12,VWS V14.01,2013-11-17 13:24:00,
2013-11-17 08:26:00,56.2,54.7,29.64,South,184,8.3,8.3,95,0.12,,,0.35,14.47,VWS V14.01,2013-11-17 13:26:00,
2013-11-17 08:27:00,56.3,54.9,29.65,South,181,10.0,10.0,95,0.12,,,0.35,14.16,VWS V14.01,2013-11-17 13:27:00,
2013-11-17 08:28:00,56.2,54.8,29.65,South,190,9.7,10.2,95,0.12,,,0.35,12.52,VWS V14.01,2013-11-17 13:28:00,
2013-11-17 08:30:00,56.2,54.8,29.65,South,187,10.7,10.9,95,0.12,,,0.35,13.49,VWS V14.01,2013-11-17 13:30:00,
2013-11-17 08:32:00,56.2,54.8,29.65,SSW,205,11.2,11.2,95,0.12,,,0.35,15.45,VWS V14.01,2013-11-17 13:32:00,
2013-11-17 08:33:00,56.5,55.1,29.65,SSW,207,12.8,12.8,95,0.12,,,0.35,18.86,VWS V14.01,2013-11-17 13:33:00,
2013-11-17 08:34:00,56.2,54.8,29.65,South,183,8.5,12.8,95,0.08,,,0.35,24.85,VWS V14.01,2013-11-17 13:34:00,
2013-11-17 08:37:00,56.4,54.9,29.65,SSW,203,13.1,13.1,95,0.08,,,0.35,19.05,VWS V14.01,2013-11-17 13:37:00,
2013-11-17 08:39:00,56.5,55.0,29.65,South,184,11.2,13.8,95,0.08,,,0.35,21.18,VWS V14.01,2013-11-17 13:39:00,
2013-11-17 08:41:00,56.3,54.8,29.67,South,178,9.7,9.7,95,0.04,,,0.35,14.71,VWS V14.01,2013-11-17 13:41:00,
2013-11-17 08:42:00,56.5,55.0,29.65,SSW,198,12.3,12.3,95,0.04,,,0.35,14.16,VWS V14.01,2013-11-17 13:42:00,
2013-11-17 08:43:00,56.5,55.0,29.65,SSW,198,12.3,12.3,95,0.04,,,0.35,14.16,VWS V14.01,2013-11-17 13:43:00,
2013-11-17 08:44:00,56.3,52.4,29.65,South,180,7.6,12.6,87,0.04,,,0.35,15.51,VWS V14.01,2013-11-17 13:44:00,
2013-11-17 08:45:00,56.3,54.7,29.65,South,180,8.0,8.0,94,0.04,,,0.35,15.02,VWS V14.01,2013-11-17 13:45:00,
2013-11-17 08:47:00,56.3,53.0,29.65,SSW,202,9.3,11.9,88,0.04,,,0.35,9.10,VWS V14.01,2013-11-17 13:47:00,
2013-11-17 08:48:00,56.6,55.0,29.65,SSW,193,10.0,10.0,94,0.04,,,0.35,7.14,VWS V14.01,2013-11-17 13:48:00,
2013-11-17 08:49:00,56.3,54.7,29.65,SSW,195,8.5,10.0,94,0.04,,,0.35,7.75,VWS V14.01,2013-11-17 13:49:00,
2013-11-17 08:52:00,56.4,54.8,29.65,South,188,8.3,8.3,94,0.00,,,0.35,6.53,VWS V14.01,2013-11-17 13:52:00,
2013-11-17 08:53:00,56.5,53.3,29.65,South,191,8.8,8.8,89,0.00,,,0.35,8.61,VWS V14.01,2013-11-17 13:53:00,
2013-11-17 08:55:00,56.7,55.1,29.65,South,190,10.4,10.4,94,0.00,,,0.35,8.85,VWS V14.01,2013-11-17 13:55:00,
2013-11-17 08:56:00,56.7,54.1,29.65,SW,221,11.1,11.1,91,0.00,,,0.35,9.58,VWS V14.01,2013-11-17 13:56:00,
2013-11-17 08:57:00,56.6,55.0,29.65,SSW,201,9.5,9.7,94,0.00,,,0.35,9.58,VWS V14.01,2013-11-17 13:57:00,
2013-11-17 08:59:00,56.4,54.7,29.65,SSW,196,8.1,9.5,94,0.00,,,0.35,12.03,VWS V14.01,2013-11-17 13:59:00,
2013-11-17 09:00:00,56.7,55.0,29.65,SSW,192,9.9,9.9,94,0.00,,,0.35,11.72,VWS V14.01,2013-11-17 14:00:00,
2013-11-17 09:01:00,57.0,55.2,29.65,SSW,194,8.3,10.4,94,0.00,,,0.35,12.76,VWS V14.01,2013-11-17 14:01:00,
2013-11-17 09:03:00,56.7,54.8,29.64,South,182,10.2,10.5,93,0.00,,,0.35,11.54,VWS V14.01,2013-11-17 14:03:00,
2013-11-17 09:04:00,57.2,55.1,29.64,SSW,192,11.1,11.1,93,0.00,,,0.35,10.99,VWS V14.01,2013-11-17 14:04:00,
2013-11-17 09:05:00,57.0,54.8,29.64,SSW,195,12.9,12.9,92,0.00,,,0.35,9.58,VWS V14.01,2013-11-17 14:05:00,
2013-11-17 09:06:00,57.2,55.0,29.66,SSW,199,13.3,13.3,92,0.00,,,0.35,8.55,VWS V14.01,2013-11-17 14:06:00,
2013-11-17 09:07:00,56.9,54.7,29.65,SSW,192,9.3,13.3,92,0.00,,,0.35,8.30,VWS V14.01,2013-11-17 14:07:00,
2013-11-17 09:10:00,57.1,54.8,29.65,South,186,9.7,13.3,92,0.00,,,0.35,6.90,VWS V14.01,2013-11-17 14:10:00,
2013-11-17 09:11:00,57.0,54.7,29.65,South,188,9.0,13.3,92,0.00,,,0.35,4.82,VWS V14.01,2013-11-17 14:11:00,
2013-11-17 09:12:00,57.0,52.7,29.64,SSW,192,10.9,13.3,86,0.00,,,0.35,6.90,VWS V14.01,2013-11-17 14:12:00,
2013-11-17 09:13:00,57.1,54.8,29.65,SSW,194,14.5,14.5,92,0.00,,,0.35,9.89,VWS V14.01,2013-11-17 14:13:00,
2013-11-17 09:14:00,57.2,53.9,29.65,South,184,11.6,14.5,89,0.00,,,0.35,9.58,VWS V14.01,2013-11-17 14:14:00,
2013-11-17 09:16:00,56.9,54.4,29.65,SSW,212,9.0,14.5,91,0.00,,,0.35,16.91,VWS V14.01,2013-11-17 14:16:00,
2013-11-17 09:17:00,57.1,54.6,29.65,SSW,195,8.0,14.5,91,0.00,,,0.35,19.66,VWS V14.01,2013-11-17 14:17:00,
2013-11-17 09:18:00,57.2,54.8,29.65,SSW,193,11.1,14.5,91,0.00,,,0.35,20.82,VWS V14.01,2013-11-17 14:18:00,
2013-11-17 09:20:00,56.9,54.3,29.65,SSE,165,9.2,14.5,91,0.00,,,0.35,24.54,VWS V14.01,2013-11-17 14:20:00,
2013-11-17 09:21:00,57.2,54.7,29.64,South,183,11.1,14.5,91,0.00,,,0.35,22.28,VWS V14.01,2013-11-17 14:21:00,
2013-11-17 09:22:00,57.1,54.6,29.64,SSW,200,6.9,14.5,91,0.00,,,0.35,22.53,VWS V14.01,2013-11-17 14:22:00,
2013-11-17 09:23:00,57.7,55.2,29.64,SSW,200,15.7,15.7,91,0.00,,,0.35,21.49,VWS V14.01,2013-11-17 14:23:00,
2013-11-17 09:25:00,57.7,54.9,29.64,South,172,15.0,15.7,90,0.00,,,0.00,28.14,VWS V14.01,2013-11-17 14:25:00,
2013-11-17 09:26:00,58.0,55.0,29.65,SSW,199,12.6,15.7,90,0.00,,,0.35,34.25,VWS V14.01,2013-11-17 14:26:00,
2013-11-17 09:27:00,57.8,54.8,29.65,SSW,209,13.3,15.7,90,0.00,,,0.35,38.89,VWS V14.01,2013-11-17 14:27:00,
2013-11-17 09:28:00,57.7,54.7,29.64,SW,230,10.2,15.7,90,0.00,,,0.35,39.13,VWS V14.01,2013-11-17 14:28:00,
2013-11-17 09:29:00,57.6,54.5,29.64,South,189,9.0,15.7,89,0.00,,,0.35,52.01,VWS V14.01,2013-11-17 14:29:00,
2013-11-17 09:30:00,58.0,54.9,29.65,SSW,209,11.6,15.7,89,0.00,,,0.35,63.31,VWS V14.01,2013-11-17 14:30:00,
2013-11-17 09:32:00,58.3,55.0,29.64,South,191,10.5,15.7,89,0.00,,,0.35,77.66,VWS V14.01,2013-11-17 14:32:00,
2013-11-17 09:33:00,58.2,54.8,29.64,SSW,205,10.4,15.7,89,0.00,,,0.35,69.17,VWS V14.01,2013-11-17 14:33:00,
2013-11-17 09:34:00,58.2,54.8,29.64,SSW,201,11.9,15.7,88,0.00,,,0.35,56.23,VWS V14.01,2013-11-17 14:34:00,
2013-11-17 09:38:00,58.4,54.8,29.64,SSW,192,12.8,15.7,88,0.00,,,0.35,24.24,VWS V14.01,2013-11-17 14:38:00,
2013-11-17 09:39:00,58.3,54.6,29.64,SSW,201,13.6,15.7,87,0.00,,,0.35,17.83,VWS V14.01,2013-11-17 14:39:00,
2013-11-17 09:40:00,58.3,54.6,29.64,SSW,201,13.6,15.7,87,0.00,,,0.35,17.83,VWS V14.01,2013-11-17 14:40:00,
2013-11-17 09:43:00,58.2,54.4,29.64,South,189,9.3,16.9,87,0.00,,,0.35,19.05,VWS V14.01,2013-11-17 14:43:00,
2013-11-17 09:45:00,58.3,54.6,29.64,SW,218,11.2,16.9,87,0.00,,,0.35,11.78,VWS V14.01,2013-11-17 14:45:00,
2013-11-17 09:46:00,58.2,54.5,29.64,SSW,197,12.4,16.9,87,0.00,,,0.35,13.49,VWS V14.01,2013-11-17 14:46:00,
2013-11-17 09:47:00,58.6,54.7,29.64,SSW,198,11.2,16.9,87,0.00,,,0.35,29.73,VWS V14.01,2013-11-17 14:47:00,
2013-11-17 09:50:00,58.9,54.9,29.64,SSW,210,14.6,16.9,87,0.00,,,0.35,36.20,VWS V14.01,2013-11-17 14:50:00,
2013-11-17 09:51:00,58.9,54.9,29.65,SSW,203,14.3,16.9,87,0.00,,,0.35,43.77,VWS V14.01,2013-11-17 14:51:00,
2013-11-17 09:52:00,58.8,54.8,29.63,SSW,207,14.8,24.1,86,0.00,,,0.35,43.77,VWS V14.01,2013-11-17 14:52:00,
2013-11-17 09:55:00,58.9,55.1,29.64,SSW,192,17.4,24.1,87,0.00,,,0.35,58.42,VWS V14.01,2013-11-17 14:55:00,
2013-11-17 09:56:00,58.9,55.0,29.64,SSW,198,16.4,24.1,87,0.00,,,0.35,58.42,VWS V14.01,2013-11-17 14:56:00,
2013-11-17 09:57:00,58.7,54.9,29.64,SW,225,11.7,24.1,87,0.00,,,0.35,75.21,VWS V14.01,2013-11-17 14:57:00,
2013-11-17 09:58:00,59.0,55.3,29.63,SSW,200,19.3,24.1,88,0.00,,,0.35,63.31,VWS V14.01,2013-11-17 14:58:00,
2013-11-17 09:59:00,59.0,55.2,29.63,South,185,22.0,24.1,87,0.00,,,0.35,57.14,VWS V14.01,2013-11-17 14:59:00,
2013-11-17 10:01:00,58.7,55.0,29.63,South,190,14.3,24.1,87,0.00,,,0.35,28.21,VWS V14.01,2013-11-17 15:01:00,
2013-11-17 10:02:00,58.8,55.2,29.63,South,184,17.9,24.1,88,0.00,,,0.35,22.28,VWS V14.01,2013-11-17 15:02:00,
2013-11-17 10:04:00,58.4,54.8,29.62,SSW,195,11.4,17.2,88,0.00,,,0.35,34.92,VWS V14.01,2013-11-17 15:04:00,
2013-11-17 10:05:00,58.4,55.1,29.62,SSW,193,13.3,13.8,89,0.00,,,0.35,37.48,VWS V14.01,2013-11-17 15:05:00,
2013-11-17 10:07:00,58.5,55.3,29.63,South,179,12.8,15.0,89,0.00,,,0.35,57.08,VWS V14.01,2013-11-17 15:07:00,
2013-11-17 10:08:00,58.7,55.5,29.63,SSW,201,16.0,16.0,89,0.00,,,0.35,102.14,VWS V14.01,2013-11-17 15:08:00,
2013-11-17 10:10:00,58.5,55.4,29.63,SSW,205,11.6,16.9,89,0.00,,,0.35,80.16,VWS V14.01,2013-11-17 15:10:00,
2013-11-17 10:11:00,58.6,55.5,29.63,SSW,197,12.6,16.9,89,0.00,,,0.35,75.15,VWS V14.01,2013-11-17 15:11:00,
2013-11-17 10:12:00,58.9,55.9,29.63,SSW,195,19.4,19.4,90,0.00,,,0.35,80.40,VWS V14.01,2013-11-17 15:12:00,
2013-11-17 10:15:00,58.6,55.5,29.63,SSW,195,11.6,11.6,89,0.00,,,0.35,47.92,VWS V14.01,2013-11-17 15:15:00,
2013-11-17 10:16:00,58.6,55.5,29.62,SSW,203,15.8,15.8,89,0.00,,,0.35,42.55,VWS V14.01,2013-11-17 15:16:00,
2013-11-17 10:17:00,58.6,55.5,29.63,SSW,194,14.5,17.2,89,0.00,,,0.35,22.41,VWS V14.01,2013-11-17 15:17:00,
2013-11-17 10:18:00,58.8,55.6,29.63,SSW,200,14.1,17.2,89,0.00,,,0.35,21.79,VWS V14.01,2013-11-17 15:18:00,
2013-11-17 10:19:00,59.0,55.7,29.63,SSW,200,16.5,16.5,89,0.00,,,0.35,19.35,VWS V14.01,2013-11-17 15:19:00,
2013-11-17 10:21:00,58.8,55.5,29.63,South,175,16.2,16.5,89,0.00,,,0.35,19.90,VWS V14.01,2013-11-17 15:21:00,
2013-11-17 10:23:00,58.8,55.2,29.63,South,188,15.7,20.8,88,0.00,,,0.35,35.23,VWS V14.01,2013-11-17 15:23:00,
2013-11-17 10:24:00,58.8,55.0,29.63,South,190,15.7,22.4,87,0.00,,,0.35,35.90,VWS V14.01,2013-11-17 15:24:00,
2013-11-17 10:26:00,59.0,55.2,29.62,SSW,199,16.5,17.6,87,0.00,,,0.35,85.29,VWS V14.01,2013-11-17 15:26:00,
2013-11-17 10:27:00,59.0,55.2,29.62,SSW,199,16.5,17.6,87,0.00,,,0.35,85.29,VWS V14.01,2013-11-17 15:27:00,
2013-11-17 10:30:00,59.7,55.2,29.63,SSW,208,13.8,21.0,85,0.00,,,0.35,176.86,VWS V14.01,2013-11-17 15:30:00,
2013-11-17 10:33:00,59.6,54.9,29.62,SSW,209,18.8,27.8,84,0.00,,,0.35,124.05,VWS V14.01,2013-11-17 15:33:00,
2013-11-17 10:35:00,59.6,55.3,29.62,SW,217,15.5,15.5,86,0.00,,,0.35,132.17,VWS V14.01,2013-11-17 15:35:00,
2013-11-17 10:36:00,59.7,55.3,29.62,SW,223,15.8,15.8,85,0.00,,,0.35,133.82,VWS V14.01,2013-11-17 15:36:00,
2013-11-17 10:37:00,59.8,55.0,29.61,South,188,22.9,22.9,84,0.00,,,0.35,171.73,VWS V14.01,2013-11-17 15:37:00,
2013-11-17 10:38:00,59.8,54.9,29.62,SSW,197,10.5,19.4,84,0.00,,,0.35,165.32,VWS V14.01,2013-11-17 15:38:00,
2013-11-17 10:40:00,60.0,54.3,29.62,South,190,18.6,20.8,81,0.00,,,0.35,178.08,VWS V14.01,2013-11-17 15:40:00,
2013-11-17 10:43:00,59.9,54.4,29.62,SSW,192,21.5,21.5,82,0.00,,,0.35,178.08,VWS V14.01,2013-11-17 15:43:00,
2013-11-17 10:44:00,59.8,54.2,29.63,South,191,18.1,21.7,82,0.00,,,0.35,180.10,VWS V14.01,2013-11-17 15:44:00,
2013-11-17 10:47:00,60.0,54.6,29.62,South,180,16.7,21.2,82,0.00,,,0.35,152.20,VWS V14.01,2013-11-17 15:47:00,
2013-11-17 10:48:00,60.0,54.4,29.62,SSW,206,20.3,20.3,82,0.00,,,0.35,97.25,VWS V14.01,2013-11-17 15:48:00,
2013-11-17 10:49:00,59.9,54.4,29.62,SSW,198,18.9,18.9,82,0.00,,,0.35,75.52,VWS V14.01,2013-11-17 15:49:00,
2013-11-17 10:50:00,59.9,54.4,29.63,SSW,203,16.9,16.9,82,0.00,,,0.35,73.81,VWS V14.01,2013-11-17 15:50:00,
2013-11-17 10:51:00,59.8,54.5,29.62,SW,220,16.2,16.9,83,0.00,,,0.35,64.29,VWS V14.01,2013-11-17 15:51:00,
2013-11-17 10:52:00,59.6,54.5,29.63,SSW,203,10.0,16.2,83,0.00,,,0.35,70.63,VWS V14.01,2013-11-17 15:52:00,
2013-11-17 10:53:00,59.8,54.4,29.61,SSW,205,15.2,15.2,82,0.00,,,0.35,93.35,VWS V14.01,2013-11-17 15:53:00,
2013-11-17 10:54:00,60.0,54.5,29.61,SSW,198,15.8,15.8,82,0.00,,,0.35,117.64,VWS V14.01,2013-11-17 15:54:00,
2013-11-17 10:56:00,60.0,54.8,29.63,SSW,201,13.6,16.0,83,0.00,,,0.35,91.09,VWS V14.01,2013-11-17 15:56:00,
2013-11-17 10:58:00,60.1,54.9,29.63,SSW,208,14.5,14.5,83,0.00,,,0.35,114.90,VWS V14.01,2013-11-17 15:58:00,
2013-11-17 10:59:00,60.2,54.8,29.63,SSW,207,18.4,18.4,82,0.00,,,0.35,153.91,VWS V14.01,2013-11-17 15:59:00,
2013-11-17 11:00:00,60.2,54.7,29.63,SSW,192,13.8,18.4,82,0.00,,,0.35,148.78,VWS V14.01,2013-11-17 16:00:00,
2013-11-17 11:01:00,60.3,54.4,29.61,SSW,207,23.7,23.7,81,0.00,,,0.35,136.81,VWS V14.01,2013-11-17 16:01:00,
2013-11-17 11:02:00,60.3,54.4,29.61,SSW,207,23.7,23.7,81,0.00,,,0.35,136.81,VWS V14.01,2013-11-17 16:02:00,
2013-11-17 11:03:00,60.3,54.3,29.61,South,191,20.5,22.0,80,0.00,,,0.35,133.88,VWS V14.01,2013-11-17 16:03:00,
2013-11-17 11:05:00,60.2,54.2,29.62,SW,217,12.4,16.9,81,0.00,,,0.35,65.75,VWS V14.01,2013-11-17 16:05:00,
2013-11-17 11:07:00,60.1,54.4,29.62,SSW,209,13.3,13.3,81,0.00,,,0.35,63.80,VWS V14.01,2013-11-17 16:07:00,
2013-11-17 11:08:00,60.3,54.2,29.62,SSW,213,15.5,18.6,80,0.00,,,0.35,80.40,VWS V14.01,2013-11-17 16:08:00,
2013-11-17 11:09:00,60.2,54.2,29.62,SSW,211,16.4,16.4,81,0.00,,,0.35,65.75,VWS V14.01,2013-11-17 16:09:00,
2013-11-17 11:11:00,60.0,54.2,29.61,SSW,199,15.7,17.6,81,0.00,,,0.35,31.56,VWS V14.01,2013-11-17 16:11:00,
2013-11-17 11:12:00,60.0,54.3,29.61,SSW,209,14.1,15.7,81,0.00,,,0.35,24.60,VWS V14.01,2013-11-17 16:12:00,
2013-11-17 11:14:00,60.1,54.2,29.61,SSW,208,13.8,17.9,81,0.00,,,0.35,39.44,VWS V14.01,2013-11-17 16:14:00,
2013-11-17 11:15:00,60.2,54.2,29.61,SSW,208,18.2,18.2,81,0.00,,,0.35,48.90,VWS V14.01,2013-11-17 16:15:00,
2013-11-17 11:16:00,60.0,54.1,29.61,SSW,212,15.5,19.3,81,0.00,,,0.35,45.91,VWS V14.01,2013-11-17 16:16:00,
2013-11-17 11:17:00,60.1,54.2,29.61,SW,231,17.4,17.4,81,0.00,,,0.35,39.87,VWS V14.01,2013-11-17 16:17:00,
2013-11-17 11:18:00,60.2,54.4,29.61,South,190,13.5,17.4,81,0.00,,,0.35,41.58,VWS V14.01,2013-11-17 16:18:00,
2013-11-17 11:20:00,60.2,54.7,29.61,SSW,192,16.9,16.9,82,0.00,,,0.35,49.88,VWS V14.01,2013-11-17 16:20:00,
2013-11-17 11:22:00,59.9,54.6,29.61,SSW,202,15.0,15.0,82,0.00,,,0.35,24.91,VWS V14.01,2013-11-17 16:22:00,
2013-11-17 11:23:00,60.0,54.9,29.61,SSW,205,17.0,17.0,83,0.00,,,0.35,19.84,VWS V14.01,2013-11-17 16:23:00,
2013-11-17 11:26:00,59.9,54.9,29.61,SW,218,12.1,18.6,83,0.00,,,0.35,28.21,VWS V14.01,2013-11-17 16:26:00,
2013-11-17 11:27:00,59.6,55.0,29.62,SSW,210,9.9,11.6,85,0.00,,,0.35,50.06,VWS V14.01,2013-11-17 16:27:00,
2013-11-17 11:28:00,60.0,55.4,29.62,SSW,198,15.7,15.7,85,0.00,,,0.35,46.21,VWS V14.01,2013-11-17 16:28:00,
2013-11-17 11:31:00,59.8,55.3,29.59,SSW,212,13.8,13.8,85,0.04,,,0.39,44.14,VWS V14.01,2013-11-17 16:31:00,
2013-11-17 11:32:00,59.9,55.4,29.59,SW,216,10.7,13.8,85,0.04,,,0.39,34.74,VWS V14.01,2013-11-17 16:32:00,
2013-11-17 11:33:00,59.8,55.4,29.59,SW,218,8.7,10.7,85,0.04,,,0.39,29.12,VWS V14.01,2013-11-17 16:33:00,
2013-11-17 11:34:00,59.8,55.5,29.60,SSW,209,11.1,11.1,86,0.04,,,0.39,26.68,VWS V14.01,2013-11-17 16:34:00,
2013-11-17 11:37:00,60.2,56.0,29.60,SSW,192,13.5,14.0,86,0.04,,,0.39,29.61,VWS V14.01,2013-11-17 16:37:00,
2013-11-17 11:39:00,59.7,55.2,29.60,SSW,210,8.1,10.5,85,0.04,,,0.39,42.31,VWS V14.01,2013-11-17 16:39:00,
2013-11-17 11:43:00,60.3,55.9,29.58,SW,216,11.9,11.9,85,0.04,,,0.39,18.38,VWS V14.01,2013-11-17 16:43:00,
2013-11-17 11:44:00,60.3,55.8,29.59,SSW,202,15.5,15.5,85,0.04,,,0.39,19.35,VWS V14.01,2013-11-17 16:44:00,
2013-11-17 11:45:00,60.6,56.0,29.59,SSW,213,22.0,22.0,85,0.04,,,0.39,21.79,VWS V14.01,2013-11-17 16:45:00,
2013-11-17 11:46:00,60.5,55.6,29.60,South,191,10.4,16.2,84,0.04,,,0.39,47.92,VWS V14.01,2013-11-17 16:46:00,
2013-11-17 11:48:00,60.3,55.6,29.58,SSW,210,12.6,15.0,85,0.04,,,0.39,75.21,VWS V14.01,2013-11-17 16:48:00,
2013-11-17 11:49:00,60.4,55.8,29.58,SSW,198,13.1,13.1,85,0.04,,,0.39,73.69,VWS V14.01,2013-11-17 16:49:00,
2013-11-17 11:51:00,60.4,56.0,29.58,SSW,194,11.6,14.3,85,0.04,,,0.39,24.54,VWS V14.01,2013-11-17 16:51:00,
2013-11-17 11:52:00,60.5,56.0,29.58,SSW,203,11.7,14.3,85,0.04,,,0.39,16.91,VWS V14.01,2013-11-17 16:52:00,
2013-11-17 11:54:00,61.0,56.2,29.58,SSW,205,18.2,18.2,84,0.04,,,0.39,15.26,VWS V14.01,2013-11-17 16:54:00,
2013-11-17 11:55:00,60.9,55.7,29.58,SW,215,19.6,19.6,83,0.04,,,0.39,19.11,VWS V14.01,2013-11-17 16:55:00,
2013-11-17 11:57:00,60.9,55.7,29.56,SSW,204,10.7,16.7,83,0.04,,,0.39,24.24,VWS V14.01,2013-11-17 16:57:00,
2013-11-17 11:58:00,60.7,55.3,29.56,South,182,16.9,16.9,82,0.04,,,0.39,21.79,VWS V14.01,2013-11-17 16:58:00,
2013-11-17 12:00:00,60.5,55.4,29.56,South,174,13.1,16.9,83,0.04,,,0.39,12.03,VWS V14.01,2013-11-17 17:00:00,
2013-11-17 12:01:00,60.6,55.5,29.57,South,190,15.7,16.0,83,0.00,,,0.39,2.56,VWS V14.01,2013-11-17 17:01:00,
2013-11-17 12:02:00,61.2,56.0,29.57,SSW,206,18.6,18.6,83,0.00,,,0.39,9.83,VWS V14.01,2013-11-17 17:02:00,
2013-11-17 12:03:00,61.2,56.0,29.57,SSW,206,18.6,18.6,83,0.00,,,0.39,9.83,VWS V14.01,2013-11-17 17:03:00,
2013-11-17 12:05:00,60.6,55.3,29.55,SSW,194,11.6,21.0,83,0.00,,,0.39,11.97,VWS V14.01,2013-11-17 17:05:00,
2013-11-17 12:06:00,61.1,55.7,29.56,SSW,205,20.6,21.0,82,0.00,,,0.39,10.07,VWS V14.01,2013-11-17 17:06:00,
2013-11-17 12:08:00,61.1,55.5,29.57,SW,224,18.8,21.8,82,0.00,,,0.39,15.63,VWS V14.01,2013-11-17 17:08:00,
2013-11-17 12:12:00,60.0,55.6,29.58,SW,215,13.5,21.8,85,0.04,,,0.43,38.16,VWS V14.01,2013-11-17 17:12:00,
2013-11-17 12:13:00,60.4,56.5,29.57,SSW,207,20.0,21.8,87,0.04,,,0.43,48.90,VWS V14.01,2013-11-17 17:13:00,
2013-11-17 12:14:00,60.5,56.7,29.56,SSE,166,19.1,21.8,87,0.04,,,0.43,48.35,VWS V14.01,2013-11-17 17:14:00,
2013-11-17 12:15:00,60.4,56.8,29.56,SSW,200,18.1,21.8,88,0.04,,,0.43,46.21,VWS V14.01,2013-11-17 17:15:00,
2013-11-17 12:17:00,60.6,57.1,29.57,SW,226,18.9,21.8,88,0.04,,,0.43,46.89,VWS V14.01,2013-11-17 17:17:00,
2013-11-17 12:18:00,60.2,56.7,29.57,SSW,207,13.1,21.8,88,0.04,,,0.43,53.54,VWS V14.01,2013-11-17 17:18:00,
2013-11-17 12:20:00,60.3,56.8,29.57,SW,216,13.5,21.8,88,0.04,,,0.43,75.34,VWS V14.01,2013-11-17 17:20:00,
2013-11-17 12:21:00,61.0,57.0,29.56,SSW,201,21.8,29.7,87,0.04,,,0.43,68.19,VWS V14.01,2013-11-17 17:21:00,
2013-11-17 12:22:00,60.6,56.5,29.56,SSW,206,19.3,29.7,86,0.04,,,0.43,58.18,VWS V14.01,2013-11-17 17:22:00,
2013-11-17 12:24:00,60.8,56.9,29.55,South,189,16.9,29.7,87,0.04,,,0.43,44.99,VWS V14.01,2013-11-17 17:24:00,
2013-11-17 12:25:00,60.1,56.1,29.56,SSW,211,11.2,29.7,87,0.04,,,0.43,46.21,VWS V14.01,2013-11-17 17:25:00,
2013-11-17 12:27:00,60.5,56.6,29.54,SSW,202,14.1,29.7,87,0.04,,,0.43,68.19,VWS V14.01,2013-11-17 17:27:00,
2013-11-17 12:28:00,60.5,56.8,29.55,South,176,18.6,29.7,87,0.04,,,0.43,97.19,VWS V14.01,2013-11-17 17:28:00,
2013-11-17 12:29:00,60.6,56.8,29.56,SSW,199,17.9,29.7,87,0.04,,,0.43,102.75,VWS V14.01,2013-11-17 17:29:00,
2013-11-17 12:30:00,60.8,57.1,29.55,South,180,14.6,29.7,88,0.04,,,0.43,104.58,VWS V14.01,2013-11-17 17:30:00,
2013-11-17 12:31:00,60.7,56.7,29.55,SSW,202,15.5,29.7,87,0.04,,,0.43,66.18,VWS V14.01,2013-11-17 17:31:00,
2013-11-17 12:32:00,60.3,56.4,29.55,South,190,13.8,29.7,87,0.04,,,0.43,65.02,VWS V14.01,2013-11-17 17:32:00,
2013-11-17 12:34:00,60.4,56.6,29.54,South,190,15.2,29.7,87,0.04,,,0.43,68.19,VWS V14.01,2013-11-17 17:34:00,
2013-11-17 12:35:00,60.0,56.3,29.54,SSW,193,17.2,29.7,87,0.04,,,0.43,72.77,VWS V14.01,2013-11-17 17:35:00,
2013-11-17 12:36:00,60.3,56.7,29.53,SSW,197,14.5,29.7,88,0.04,,,0.43,80.10,VWS V14.01,2013-11-17 17:36:00,
2013-11-17 12:37:00,60.4,56.7,29.53,SSW,211,14.5,29.7,87,0.04,,,0.43,71.25,VWS V14.01,2013-11-17 17:37:00,
2013-11-17 12:38:00,60.5,56.8,29.53,SSW,196,16.0,29.7,88,0.04,,,0.43,68.38,VWS V14.01,2013-11-17 17:38:00,
2013-11-17 12:41:00,60.6,56.7,29.52,SSW,195,14.0,29.7,87,0.04,,,0.43,97.50,VWS V14.01,2013-11-17 17:41:00,
2013-11-17 12:42:00,60.8,56.8,29.52,SSW,206,18.6,29.7,87,0.04,,,0.43,87.24,VWS V14.01,2013-11-17 17:42:00,
2013-11-17 12:43:00,60.4,56.3,29.52,SSW,193,15.8,29.7,86,0.04,,,0.43,73.38,VWS V14.01,2013-11-17 17:43:00,
2013-11-17 12:44:00,60.7,56.8,29.51,South,177,14.8,29.7,87,0.04,,,0.43,92.37,VWS V14.01,2013-11-17 17:44:00,
2013-11-17 12:45:00,60.4,56.4,29.52,SSW,197,12.6,29.7,87,0.04,,,0.43,99.63,VWS V14.01,2013-11-17 17:45:00,
2013-11-17 12:47:00,60.8,56.9,29.52,SSW,198,13.6,29.7,87,0.04,,,0.43,195.42,VWS V14.01,2013-11-17 17:47:00,
2013-11-17 12:49:00,61.1,57.2,29.52,SSW,197,14.5,29.7,87,0.04,,,0.43,148.78,VWS V14.01,2013-11-17 17:49:00,
2013-11-17 12:51:00,61.0,57.0,29.52,SSW,206,14.1,29.7,86,0.04,,,0.43,115.51,VWS V14.01,2013-11-17 17:51:00,
2013-11-17 12:53:00,61.0,56.7,29.51,South,187,16.0,29.7,86,0.04,,,0.43,130.46,VWS V14.01,2013-11-17 17:53:00,
2013-11-17 12:54:00,61.0,56.7,29.50,South,187,13.5,29.7,85,0.04,,,0.43,143.90,VWS V14.01,2013-11-17 17:54:00,
2013-11-17 12:55:00,61.1,56.6,29.50,SSW,210,18.9,29.7,85,0.04,,,0.43,136.81,VWS V14.01,2013-11-17 17:55:00,
2013-11-17 12:58:00,61.4,57.0,29.50,SSW,198,16.7,29.7,85,0.04,,,0.43,197.62,VWS V14.01,2013-11-17 17:58:00,
2013-11-17 12:59:00,61.4,57.0,29.49,SSW,196,9.5,29.7,85,0.04,,,0.43,256.23,VWS V14.01,2013-11-17 17:59:00,
2013-11-17 13:00:00,61.7,57.0,29.49,SSW,196,20.3,29.7,84,0.04,,,0.43,294.81,VWS V14.01,2013-11-17 18:00:00,
2013-11-17 13:01:00,62.0,57.0,29.48,South,190,17.9,17.9,84,0.04,,,0.43,312.21,VWS V14.01,2013-11-17 18:01:00,
2013-11-17 13:03:00,62.0,56.9,29.48,SW,214,19.8,19.8,83,0.04,,,0.43,314.35,VWS V14.01,2013-11-17 18:03:00,
2013-11-17 13:04:00,62.1,56.7,29.48,SSW,200,16.5,19.8,83,0.04,,,0.43,285.29,VWS V14.01,2013-11-17 18:04:00,
2013-11-17 13:05:00,62.0,56.8,29.49,SSW,195,16.4,16.5,83,0.04,,,0.43,285.29,VWS V14.01,2013-11-17 18:05:00,
2013-11-17 13:07:00,62.3,56.4,29.48,South,191,17.4,17.4,81,0.04,,,0.43,246.46,VWS V14.01,2013-11-17 18:07:00,
2013-11-17 13:09:00,62.2,56.5,29.48,South,191,13.8,17.7,82,0.04,,,0.43,187.85,VWS V14.01,2013-11-17 18:09:00,
2013-11-17 13:10:00,62.3,56.4,29.48,SSW,203,17.4,17.7,81,0.04,,,0.43,177.59,VWS V14.01,2013-11-17 18:10:00,
2013-11-17 13:11:00,62.3,56.4,29.48,SSW,203,17.4,17.7,81,0.04,,,0.43,177.59,VWS V14.01,2013-11-17 18:11:00,
2013-11-17 13:12:00,62.2,56.1,29.49,SSW,201,17.4,19.8,80,0.04,,,0.43,109.95,VWS V14.01,2013-11-17 18:12:00,
2013-11-17 13:15:00,62.2,55.7,29.49,SSW,196,24.2,24.2,79,0.04,,,0.43,60.56,VWS V14.01,2013-11-17 18:15:00,
2013-11-17 13:16:00,61.8,55.0,29.48,SSW,200,19.3,23.7,78,0.04,,,0.43,55.98,VWS V14.01,2013-11-17 18:16:00,
2013-11-17 13:19:00,61.8,55.6,29.47,SW,224,16.9,16.9,80,0.04,,,0.43,51.10,VWS V14.01,2013-11-17 18:19:00,
2013-11-17 13:20:00,62.0,55.7,29.47,SSW,197,20.0,20.0,80,0.04,,,0.43,54.76,VWS V14.01,2013-11-17 18:20:00,
2013-11-17 13:21:00,62.0,55.7,29.47,SSW,197,20.0,20.0,80,0.04,,,0.43,54.76,VWS V14.01,2013-11-17 18:21:00,
2013-11-17 13:22:00,62.0,55.1,29.47,SSW,194,20.8,24.4,78,0.04,,,0.43,55.25,VWS V14.01,2013-11-17 18:22:00,
2013-11-17 13:26:00,61.9,55.5,29.48,SSW,200,15.3,15.3,79,0.04,,,0.43,34.25,VWS V14.01,2013-11-17 18:26:00,
2013-11-17 13:27:00,61.9,55.7,29.47,SSW,196,14.1,15.3,80,0.04,,,0.43,35.71,VWS V14.01,2013-11-17 18:27:00,
2013-11-17 13:28:00,62.0,55.9,29.47,South,180,15.7,15.7,80,0.04,,,0.43,36.20,VWS V14.01,2013-11-17 18:28:00,
2013-11-17 13:30:00,62.0,55.4,29.47,SSW,207,18.6,18.6,79,0.04,,,0.43,31.56,VWS V14.01,2013-11-17 18:30:00,
2013-11-17 13:31:00,61.8,55.4,29.47,SW,215,17.0,17.0,79,0.04,,,0.43,41.33,VWS V14.01,2013-11-17 18:31:00,
2013-11-17 13:32:00,61.7,55.2,29.47,SSW,203,18.1,18.1,79,0.04,,,0.43,42.80,VWS V14.01,2013-11-17 18:32:00,
2013-11-17 13:34:00,61.8,55.1,29.46,SSW,196,15.3,16.4,78,0.04,,,0.00,54.46,VWS V14.01,2013-11-17 18:34:00,
2013-11-17 13:35:00,62.2,55.3,29.46,South,178,19.8,19.8,78,0.04,,,0.43,50.85,VWS V14.01,2013-11-17 18:35:00,
2013-11-17 13:36:00,62.0,55.0,29.45,South,189,15.5,19.8,78,0.04,,,0.43,51.71,VWS V14.01,2013-11-17 18:36:00,
2013-11-17 13:37:00,62.1,53.8,29.46,SW,218,13.5,13.6,74,0.04,,,0.43,56.23,VWS V14.01,2013-11-17 18:37:00,
2013-11-17 13:38:00,62.2,55.1,29.47,SSW,206,22.4,22.4,77,0.04,,,0.43,60.56,VWS V14.01,2013-11-17 18:38:00,
2013-11-17 13:40:00,62.0,55.0,29.47,SSW,200,14.5,14.5,78,0.04,,,0.43,58.42,VWS V14.01,2013-11-17 18:40:00,
2013-11-17 13:41:00,62.0,55.0,29.46,SSW,207,14.0,14.5,78,0.04,,,0.43,54.88,VWS V14.01,2013-11-17 18:41:00,
2013-11-17 13:42:00,62.5,55.2,29.46,SSW,199,22.4,22.4,77,0.04,,,0.43,51.34,VWS V14.01,2013-11-17 18:42:00,
2013-11-17 13:43:00,62.3,54.9,29.46,South,182,16.5,16.5,77,0.04,,,0.43,38.89,VWS V14.01,2013-11-17 18:43:00,
2013-11-17 13:44:00,62.2,54.6,29.46,SSW,198,15.5,16.5,76,0.04,,,0.43,34.00,VWS V14.01,2013-11-17 18:44:00,
2013-11-17 13:46:00,62.4,54.8,29.47,SSW,198,22.0,22.0,76,0.04,,,0.43,32.97,VWS V14.01,2013-11-17 18:46:00,
2013-11-17 13:47:00,62.4,54.5,29.46,SSW,202,18.2,23.0,75,0.04,,,0.43,36.69,VWS V14.01,2013-11-17 18:47:00,
2013-11-17 13:48:00,62.0,54.2,29.46,SSW,209,17.6,18.2,75,0.04,,,0.43,46.21,VWS V14.01,2013-11-17 18:48:00,
2013-11-17 13:49:00,62.1,54.5,29.46,SSW,203,14.1,17.6,76,0.04,,,0.43,44.26,VWS V14.01,2013-11-17 18:49:00,
2013-11-17 13:50:00,62.5,54.9,29.44,SSW,198,19.3,19.3,76,0.04,,,0.43,28.88,VWS V14.01,2013-11-17 18:50:00,
2013-11-17 13:51:00,62.5,54.5,29.44,SW,216,20.1,20.1,75,0.04,,,0.43,25.15,VWS V14.01,2013-11-17 18:51:00,
2013-11-17 13:52:00,62.7,54.8,29.45,South,186,21.2,21.2,75,0.04,,,0.43,19.35,VWS V14.01,2013-11-17 18:52:00,
2013-11-17 13:53:00,62.4,54.2,29.46,SSW,211,19.4,21.2,74,0.04,,,0.43,18.80,VWS V14.01,2013-11-17 18:53:00,
2013-11-17 13:54:00,62.6,54.4,29.46,SSW,200,17.4,19.4,75,0.04,,,0.43,18.74,VWS V14.01,2013-11-17 18:54:00,
2013-11-17 13:55:00,62.0,52.9,29.45,SW,215,12.8,12.8,72,0.04,,,0.43,19.35,VWS V14.01,2013-11-17 18:55:00,
2013-11-17 13:57:00,62.5,54.9,29.45,South,177,18.9,18.9,76,0.04,,,0.43,31.81,VWS V14.01,2013-11-17 18:57:00,
2013-11-17 13:59:00,62.3,54.6,29.45,SSW,196,15.5,16.7,76,0.04,,,0.43,61.36,VWS V14.01,2013-11-17 18:59:00,
2013-11-17 14:00:00,61.5,54.6,29.45,South,181,17.6,20.1,78,0.04,,,0.43,68.93,VWS V14.01,2013-11-17 19:00:00,
2013-11-17 14:01:00,60.5,54.8,29.45,SSW,199,12.1,17.6,81,0.08,,,0.47,73.08,VWS V14.01,2013-11-17 19:01:00,
2013-11-17 14:02:00,62.6,56.9,29.44,South,188,19.3,19.3,82,0.04,,,0.47,91.09,VWS V14.01,2013-11-17 19:02:00,
2013-11-17 14:04:00,62.5,55.9,29.44,South,179,18.1,19.3,79,0.04,,,0.47,48.35,VWS V14.01,2013-11-17 19:04:00,
2013-11-17 14:05:00,62.5,55.9,29.44,South,179,18.1,19.3,79,0.04,,,0.47,48.35,VWS V14.01,2013-11-17 19:05:00,
2013-11-17 14:06:00,62.5,55.3,29.44,SSW,198,20.1,20.1,77,0.04,,,0.47,41.27,VWS V14.01,2013-11-17 19:06:00,
2013-11-17 14:07:00,62.5,55.2,29.45,SSW,195,20.1,20.1,77,0.04,,,0.47,45.73,VWS V14.01,2013-11-17 19:07:00,
2013-11-17 14:09:00,62.0,54.8,29.44,SSW,192,13.3,13.3,77,0.04,,,0.47,21.79,VWS V14.01,2013-11-17 19:09:00,
2013-11-17 14:10:00,61.9,54.7,29.44,South,176,15.2,15.8,77,0.04,,,0.47,14.47,VWS V14.01,2013-11-17 19:10:00,
2013-11-17 14:11:00,62.5,55.3,29.44,South,174,17.9,17.9,77,0.04,,,0.47,21.31,VWS V14.01,2013-11-17 19:11:00,
2013-11-17 14:14:00,61.9,54.8,29.44,South,176,10.0,14.8,77,0.04,,,0.47,27.84,VWS V14.01,2013-11-17 19:14:00,
2013-11-17 14:15:00,62.7,55.0,29.44,SSW,193,20.8,20.8,76,0.04,,,0.47,26.68,VWS V14.01,2013-11-17 19:15:00,
2013-11-17 14:16:00,62.2,54.4,29.44,SSW,193,18.2,20.8,76,0.04,,,0.47,31.26,VWS V14.01,2013-11-17 19:16:00,
2013-11-17 14:17:00,62.3,54.8,29.43,SSW,192,14.0,20.8,76,0.04,,,0.47,29.12,VWS V14.01,2013-11-17 19:17:00,
2013-11-17 14:19:00,62.7,54.8,29.44,SSW,196,20.0,20.0,75,0.04,,,0.47,29.73,VWS V14.01,2013-11-17 19:19:00,
2013-11-17 14:20:00,62.0,54.5,29.44,South,187,14.0,20.0,76,0.04,,,0.47,27.90,VWS V14.01,2013-11-17 19:20:00,
2013-11-17 14:21:00,62.2,53.2,29.43,SSW,207,15.8,18.2,72,0.04,,,0.47,33.76,VWS V14.01,2013-11-17 19:21:00,
2013-11-17 14:22:00,61.2,54.0,29.43,SSW,203,11.9,18.2,77,0.04,,,0.47,34.00,VWS V14.01,2013-11-17 19:22:00,
2013-11-17 14:23:00,61.2,54.0,29.43,SSW,203,11.9,18.2,77,0.04,,,0.47,34.00,VWS V14.01,2013-11-17 19:23:00,
2013-11-17 14:25:00,61.8,55.1,29.43,SSW,209,17.2,17.2,79,0.04,,,0.47,23.93,VWS V14.01,2013-11-17 19:25:00,
2013-11-17 14:28:00,62.1,56.2,29.44,SSW,203,27.1,27.1,81,0.04,,,0.47,29.12,VWS V14.01,2013-11-17 19:28:00,
2013-11-17 14:29:00,61.8,55.6,29.43,SW,215,18.1,27.1,80,0.04,,,0.47,26.68,VWS V14.01,2013-11-17 19:29:00,
2013-11-17 14:30:00,61.8,55.6,29.43,SW,215,18.1,27.1,80,0.04,,,0.47,26.68,VWS V14.01,2013-11-17 19:30:00,
2013-11-17 14:31:00,61.4,55.9,29.43,SSW,205,21.5,21.5,82,0.04,,,0.47,15.26,VWS V14.01,2013-11-17 19:31:00,
2013-11-17 14:32:00,60.4,55.2,29.43,SSW,198,19.8,21.5,83,0.04,,,0.47,24.24,VWS V14.01,2013-11-17 19:32:00,
2013-11-17 14:34:00,61.3,56.8,29.42,SSW,192,19.8,20.1,85,0.04,,,0.47,37.06,VWS V14.01,2013-11-17 19:34:00,
2013-11-17 14:35:00,61.3,54.4,29.42,SSW,201,19.4,19.8,78,0.04,,,0.47,36.45,VWS V14.01,2013-11-17 19:35:00,
2013-11-17 14:37:00,60.8,56.4,29.42,SSW,196,23.6,23.6,85,0.04,,,0.47,26.68,VWS V14.01,2013-11-17 19:37:00,
2013-11-17 14:38:00,60.9,55.7,29.42,SSW,205,18.1,19.8,83,0.04,,,0.47,23.93,VWS V14.01,2013-11-17 19:38:00,
2013-11-17 14:40:00,61.6,57.5,29.42,South,177,19.6,19.6,86,0.04,,,0.47,21.06,VWS V14.01,2013-11-17 19:40:00,
2013-11-17 14:42:00,61.2,56.9,29.42,SSW,206,21.3,25.9,86,0.04,,,0.47,29.37,VWS V14.01,2013-11-17 19:42:00,
2013-11-17 14:43:00,60.9,56.6,29.42,South,170,15.0,21.3,86,0.04,,,0.47,29.43,VWS V14.01,2013-11-17 19:43:00,
2013-11-17 14:44:00,61.1,55.8,29.41,South,191,17.2,17.2,83,0.04,,,0.47,30.04,VWS V14.01,2013-11-17 19:44:00,
2013-11-17 14:46:00,60.7,56.9,29.41,SSW,203,15.5,18.2,87,0.04,,,0.47,31.81,VWS V14.01,2013-11-17 19:46:00,
2013-11-17 14:47:00,61.4,57.5,29.41,SSW,207,25.8,25.8,87,0.04,,,0.47,26.37,VWS V14.01,2013-11-17 19:47:00,
2013-11-17 14:48:00,61.0,57.2,29.41,South,191,15.5,25.8,87,0.04,,,0.47,26.19,VWS V14.01,2013-11-17 19:48:00,
2013-11-17 14:49:00,60.8,57.0,29.40,South,188,14.1,15.5,87,0.04,,,0.47,25.21,VWS V14.01,2013-11-17 19:49:00,
2013-11-17 14:50:00,61.1,57.5,29.40,SSW,197,16.2,16.2,88,0.04,,,0.47,22.53,VWS V14.01,2013-11-17 19:50:00,
2013-11-17 14:53:00,60.9,57.1,29.40,South,187,15.2,19.6,87,0.04,,,0.47,34.92,VWS V14.01,2013-11-17 19:53:00,
2013-11-17 14:54:00,60.8,57.2,29.40,SSW,195,11.6,15.2,88,0.04,,,0.47,29.12,VWS V14.01,2013-11-17 19:54:00,
2013-11-17 14:56:00,60.1,56.9,29.40,SSW,196,17.9,20.8,89,0.04,,,0.47,19.35,VWS V14.01,2013-11-17 19:56:00,
2013-11-17 14:57:00,60.0,57.2,29.40,South,183,16.4,16.4,90,0.04,,,0.47,19.05,VWS V14.01,2013-11-17 19:57:00,
2013-11-17 14:59:00,59.8,57.3,29.40,South,190,16.0,16.0,91,0.04,,,0.47,19.78,VWS V14.01,2013-11-17 19:59:00,
2013-11-17 15:00:00,59.7,57.5,29.40,SSW,197,18.4,21.0,92,0.04,,,0.47,21.79,VWS V14.01,2013-11-17 20:00:00,
2013-11-17 15:02:00,59.6,57.8,29.40,SSW,196,15.2,19.6,94,0.00,,,0.47,29.12,VWS V14.01,2013-11-17 20:02:00,
2013-11-17 15:03:00,59.6,58.0,29.39,SSE,165,15.8,18.8,95,0.00,,,0.47,29.06,VWS V14.01,2013-11-17 20:03:00,
2013-11-17 15:04:00,59.6,58.2,29.39,South,186,15.5,20.3,95,0.00,,,0.47,28.33,VWS V14.01,2013-11-17 20:04:00,
2013-11-17 15:05:00,59.6,58.2,29.39,South,186,15.5,20.3,95,0.00,,,0.47,28.33,VWS V14.01,2013-11-17 20:05:00,
2013-11-17 15:07:00,59.5,58.3,29.39,SSW,194,18.9,22.0,96,0.00,,,0.47,26.98,VWS V14.01,2013-11-17 20:07:00,
2013-11-17 15:08:00,59.5,58.3,29.39,South,186,16.7,18.9,96,0.00,,,0.47,28.57,VWS V14.01,2013-11-17 20:08:00,
2013-11-17 15:09:00,59.5,58.3,29.39,South,186,16.0,16.0,96,0.00,,,0.47,21.49,VWS V14.01,2013-11-17 20:09:00,
2013-11-17 15:10:00,59.5,58.3,29.39,South,186,16.0,16.0,96,0.00,,,0.47,21.49,VWS V14.01,2013-11-17 20:10:00,
2013-11-17 15:12:00,59.5,58.3,29.38,South,191,14.8,16.7,96,0.00,,,0.47,19.96,VWS V14.01,2013-11-17 20:12:00,
2013-11-17 15:13:00,59.4,58.2,29.38,South,185,14.1,16.7,96,0.04,,,0.51,19.78,VWS V14.01,2013-11-17 20:13:00,
2013-11-17 15:15:00,59.4,58.1,29.37,SSW,207,17.0,18.9,95,0.04,,,0.51,24.24,VWS V14.01,2013-11-17 20:15:00,
2013-11-17 15:17:00,59.5,58.1,29.38,SW,228,14.6,14.6,95,0.04,,,0.51,21.79,VWS V14.01,2013-11-17 20:17:00,
2013-11-17 15:18:00,59.5,58.1,29.39,SSW,194,15.3,15.3,95,0.04,,,0.51,22.95,VWS V14.01,2013-11-17 20:18:00,
2013-11-17 15:19:00,59.4,58.0,29.38,SSW,200,15.3,19.6,95,0.04,,,0.51,19.35,VWS V14.01,2013-11-17 20:19:00,
2013-11-17 15:21:00,59.4,58.1,29.38,South,184,17.9,17.9,96,0.04,,,0.51,19.84,VWS V14.01,2013-11-17 20:21:00,
2013-11-17 15:22:00,59.4,58.2,29.37,SSW,210,16.9,17.9,96,0.04,,,0.51,21.79,VWS V14.01,2013-11-17 20:22:00,
2013-11-17 15:24:00,59.4,58.2,29.37,SSW,198,14.1,16.9,96,0.04,,,0.51,27.53,VWS V14.01,2013-11-17 20:24:00,
2013-11-17 15:25:00,59.4,58.2,29.37,SSW,198,14.1,14.1,96,0.04,,,0.51,27.53,VWS V14.01,2013-11-17 20:25:00,
2013-11-17 15:26:00,59.4,58.2,29.36,SSW,195,16.0,16.0,96,0.04,,,0.51,24.24,VWS V14.01,2013-11-17 20:26:00,
2013-11-17 15:27:00,59.4,58.2,29.35,SSW,202,17.2,17.9,96,0.04,,,0.51,19.35,VWS V14.01,2013-11-17 20:27:00,
2013-11-17 15:28:00,59.4,58.2,29.35,SSW,202,17.2,17.9,96,0.04,,,0.51,19.35,VWS V14.01,2013-11-17 20:28:00,
2013-11-17 15:30:00,59.4,58.1,29.39,South,170,16.4,21.3,96,0.04,,,0.51,22.41,VWS V14.01,2013-11-17 20:30:00,
2013-11-17 15:31:00,59.4,58.1,29.37,SSW,205,12.9,16.4,96,0.04,,,0.51,20.82,VWS V14.01,2013-11-17 20:31:00,
2013-11-17 15:33:00,59.4,58.1,29.36,South,190,15.3,15.3,95,0.04,,,0.51,14.77,VWS V14.01,2013-11-17 20:33:00,
2013-11-17 15:34:00,59.5,58.2,29.36,SSW,202,20.6,20.6,95,0.04,,,0.51,16.91,VWS V14.01,2013-11-17 20:34:00,
2013-11-17 15:36:00,59.6,57.9,29.34,South,191,16.7,16.7,94,0.04,,,0.51,11.42,VWS V14.01,2013-11-17 20:36:00,
2013-11-17 15:37:00,59.6,57.8,29.35,SSW,213,12.9,12.9,94,0.04,,,0.51,12.03,VWS V14.01,2013-11-17 20:37:00,
2013-11-17 15:39:00,60.8,58.6,29.35,South,183,15.8,16.9,92,0.04,,,0.51,12.45,VWS V14.01,2013-11-17 20:39:00,
2013-11-17 15:41:00,60.8,58.4,29.35,SSW,203,14.6,15.0,92,0.04,,,0.51,13.25,VWS V14.01,2013-11-17 20:41:00,
2013-11-17 15:42:00,60.8,58.3,29.35,South,179,18.4,18.4,92,0.04,,,0.51,12.64,VWS V14.01,2013-11-17 20:42:00,
2013-11-17 15:43:00,61.1,58.5,29.34,South,187,18.8,18.8,91,0.04,,,0.51,11.54,VWS V14.01,2013-11-17 20:43:00,
2013-11-17 15:44:00,60.5,57.8,29.35,SW,223,23.7,23.7,91,0.04,,,0.51,8.12,VWS V14.01,2013-11-17 20:44:00,
2013-11-17 15:45:00,60.7,57.8,29.34,SSW,192,15.2,23.7,90,0.04,,,0.51,12.64,VWS V14.01,2013-11-17 20:45:00,
2013-11-17 15:48:00,60.6,58.0,29.34,South,180,13.3,13.3,91,0.04,,,0.51,13.68,VWS V14.01,2013-11-17 20:48:00,
2013-11-17 15:49:00,60.7,58.1,29.33,South,178,10.5,13.3,91,0.04,,,0.51,12.45,VWS V14.01,2013-11-17 20:49:00,
2013-11-17 15:50:00,61.2,58.7,29.34,SSW,205,15.8,15.8,91,0.04,,,0.51,15.93,VWS V14.01,2013-11-17 20:50:00,
2013-11-17 15:51:00,61.0,58.3,29.34,SSW,204,18.2,18.2,91,0.04,,,0.51,12.27,VWS V14.01,2013-11-17 20:51:00,
2013-11-17 15:53:00,61.3,58.6,29.35,SSW,193,23.0,23.0,91,0.04,,,0.51,11.78,VWS V14.01,2013-11-17 20:53:00,
2013-11-17 15:54:00,61.3,58.6,29.35,SSW,193,23.0,23.0,91,0.04,,,0.51,11.78,VWS V14.01,2013-11-17 20:54:00,
2013-11-17 15:55:00,61.2,58.0,29.35,South,188,20.0,21.7,89,0.04,,,0.51,8.30,VWS V14.01,2013-11-17 20:55:00,
2013-11-17 15:56:00,61.5,58.3,29.34,SSW,202,24.2,24.2,89,0.04,,,0.51,7.14,VWS V14.01,2013-11-17 20:56:00,
2013-11-17 15:57:00,61.0,57.7,29.34,SSW,194,20.3,24.2,89,0.04,,,0.51,7.75,VWS V14.01,2013-11-17 20:57:00,
2013-11-17 15:58:00,61.1,57.8,29.33,SSW,200,17.9,19.1,89,0.04,,,0.51,4.70,VWS V14.01,2013-11-17 20:58:00,
2013-11-17 15:59:00,61.0,57.7,29.33,SSW,206,18.2,18.2,89,0.04,,,0.51,4.70,VWS V14.01,2013-11-17 20:59:00,
2013-11-17 16:02:00,61.3,58.1,29.33,SSW,193,19.3,19.3,89,0.04,,,0.51,6.35,VWS V14.01,2013-11-17 21:02:00,
2013-11-17 16:03:00,61.6,58.5,29.33,SSW,207,22.9,23.4,89,0.04,,,0.51,4.70,VWS V14.01,2013-11-17 21:03:00,
2013-11-17 16:05:00,61.0,57.6,29.33,SW,216,18.4,23.4,89,0.04,,,0.51,5.62,VWS V14.01,2013-11-17 21:05:00,
2013-11-17 16:06:00,60.7,57.5,29.33,South,190,14.6,23.4,89,0.04,,,0.51,3.42,VWS V14.01,2013-11-17 21:06:00,
2013-11-17 16:07:00,61.3,58.2,29.33,SSW,201,21.5,23.4,89,0.04,,,0.51,4.70,VWS V14.01,2013-11-17 21:07:00,
2013-11-17 16:09:00,61.7,58.6,29.33,South,182,22.4,23.4,90,0.04,,,0.51,2.50,VWS V14.01,2013-11-17 21:09:00,
2013-11-17 16:10:00,61.2,58.0,29.32,SSW,193,14.8,23.4,89,0.04,,,0.51,3.54,VWS V14.01,2013-11-17 21:10:00,
2013-11-17 16:12:00,61.2,58.1,29.33,SSW,197,18.1,23.4,89,0.04,,,0.51,2.26,VWS V14.01,2013-11-17 21:12:00,
2013-11-17 16:13:00,61.5,56.4,29.32,SSW,207,23.4,23.4,83,0.04,,,0.51,2.75,VWS V14.01,2013-11-17 21:13:00,
2013-11-17 16:14:00,61.4,58.1,29.33,SSW,195,19.8,23.4,89,0.08,,,0.55,3.11,VWS V14.01,2013-11-17 21:14:00,
2013-11-17 16:15:00,61.2,57.9,29.32,SSW,199,19.8,23.4,89,0.08,,,0.55,2.26,VWS V14.01,2013-11-17 21:15:00,
2013-11-17 16:17:00,61.2,57.8,29.32,SSW,209,14.5,23.4,89,0.08,,,0.55,1.89,VWS V14.01,2013-11-17 21:17:00,
2013-11-17 16:18:00,61.6,58.2,29.32,South,181,20.8,23.4,89,0.08,,,0.55,2.26,VWS V14.01,2013-11-17 21:18:00,
2013-11-17 16:19:00,61.6,58.2,29.32,South,181,20.8,23.4,89,0.08,,,0.55,2.26,VWS V14.01,2013-11-17 21:19:00,
2013-11-17 16:21:00,60.8,57.6,29.32,South,184,28.2,28.2,89,0.08,,,0.55,0.79,VWS V14.01,2013-11-17 21:21:00,
2013-11-17 16:22:00,61.0,57.7,29.32,South,189,17.7,28.2,89,0.08,,,0.55,0.31,VWS V14.01,2013-11-17 21:22:00,
2013-11-17 16:23:00,61.0,57.7,29.32,South,189,17.7,28.2,89,0.08,,,0.55,0.31,VWS V14.01,2013-11-17 21:23:00,
2013-11-17 16:24:00,61.6,58.6,29.32,SSW,192,22.9,28.2,90,0.08,,,0.55,0.31,VWS V14.01,2013-11-17 21:24:00,
2013-11-17 16:27:00,61.4,58.7,29.33,SSW,197,25.1,28.2,91,0.12,,,0.59,0.73,VWS V14.01,2013-11-17 21:27:00,
2013-11-17 16:29:00,60.6,58.0,29.32,South,189,24.6,28.2,91,0.12,,,0.59,0.00,VWS V14.01,2013-11-17 21:29:00,
2013-11-17 16:30:00,60.7,58.2,29.32,SSW,200,17.7,28.2,91,0.12,,,0.59,0.73,VWS V14.01,2013-11-17 21:30:00,
2013-11-17 16:31:00,60.9,58.5,29.32,SSW,194,18.6,28.2,92,0.12,,,0.59,0.00,VWS V14.01,2013-11-17 21:31:00,
2013-11-17 16:33:00,60.9,58.6,29.32,SSW,192,22.5,28.2,92,0.16,,,0.63,1.53,VWS V14.01,2013-11-17 21:33:00,
2013-11-17 16:34:00,60.8,58.6,29.31,SW,216,19.1,28.2,92,0.16,,,0.63,1.04,VWS V14.01,2013-11-17 21:34:00,
2013-11-17 16:35:00,60.6,58.5,29.31,South,185,13.1,28.2,93,0.16,,,0.63,1.16,VWS V14.01,2013-11-17 21:35:00,
2013-11-17 16:36:00,61.0,59.0,29.31,South,177,23.2,28.2,93,0.16,,,0.63,1.04,VWS V14.01,2013-11-17 21:36:00,
2013-11-17 16:39:00,60.6,58.0,29.32,SSW,212,14.1,28.2,91,0.16,,,0.63,0.00,VWS V14.01,2013-11-17 21:39:00,
2013-11-17 16:40:00,61.4,59.6,29.33,SSW,198,19.4,28.2,94,0.16,,,0.63,0.06,VWS V14.01,2013-11-17 21:40:00,
2013-11-17 16:41:00,61.1,59.3,29.33,SW,216,22.9,28.2,94,0.16,,,0.63,0.06,VWS V14.01,2013-11-17 21:41:00,
2013-11-17 16:42:00,60.8,57.8,29.33,South,182,23.2,28.2,90,0.20,,,0.67,0.06,VWS V14.01,2013-11-17 21:42:00,
2013-11-17 16:45:00,59.6,58.0,29.33,SSW,211,23.4,40.7,94,0.28,,,0.75,0.06,VWS V14.01,2013-11-17 21:45:00,
2013-11-17 16:46:00,59.6,58.1,29.32,SW,235,20.5,40.7,95,0.28,,,0.75,0.67,VWS V14.01,2013-11-17 21:46:00,
2013-11-17 16:47:00,59.6,58.1,29.32,SW,235,20.5,40.7,95,0.28,,,0.75,0.67,VWS V14.01,2013-11-17 21:47:00,
2013-11-17 16:48:00,59.2,58.1,29.33,SW,228,23.9,40.7,96,0.28,,,0.75,0.06,VWS V14.01,2013-11-17 21:48:00,
2013-11-17 16:50:00,58.5,54.1,29.32,SW,223,25.6,40.7,85,0.28,,,0.75,0.43,VWS V14.01,2013-11-17 21:50:00,
2013-11-17 16:52:00,58.7,53.7,29.32,SW,233,17.9,40.7,83,0.28,,,0.75,0.00,VWS V14.01,2013-11-17 21:52:00,
2013-11-17 16:54:00,60.5,54.9,29.31,WSW,254,27.3,40.7,82,0.28,,,0.75,0.00,VWS V14.01,2013-11-17 21:54:00,
2013-11-17 17:04:00,61.4,53.3,29.31,WSW,237,19.8,20.8,75,0.31,,,0.79,1.77,VWS V14.01,2013-11-17 22:04:00,